Another Hard Day at the Office Weather Stats

 
 
 

High monthly outside Temperature, 22.8 , C
Low monthly outside Temperature, -1.0 , C
High yearly outside Temperature, 30.9 , C
Low yearly outside Temperature, -2.2 , C

Low monthly barometer, 1001.1 , mb
High monthly barometer, 1028.0 , mb
Low yearly barometer, 975.0 , mb
High yearly barometer 1041.1 , mb

High wind speed, 25.0 , mph
Time of High wind speed, 21:37 , mph
High monthly wind speed, 47.0 , mph
High yearly wind speed, 55.0 , mph

 

 




3126
                    Temp     Hi    Low   Out    Dew  Wind  Wind   Wind    Hi    Hi   Wind   Heat    THW                Rain    Heat    Cool    In     In    In     In     In   In Air  Wind  Wind    ISS   Arc.
  Date    Time     Out   Temp   Temp   Hum    Pt. Speed   Dir    Run Speed   Dir  Chill  Index  Index   Bar    Rain  Rate    D-D     D-D    Temp   Hum    Dew   Heat    EMC Density  Samp   Tx   Recept  Int.
---------------------------------------------------------------------------------------------------------------------------------------------------------------------------------------------------------------
18/01/18   0:05    8.5    8.5    8.4    93    7.4  29.0    SW   2.42  39.0    SW    2.8    8.7    3.0   999.3  0.01  0.05   0.034   0.000   23.3    37    7.8   22.6   7.27  .0726    115    1    100.0    5 
18/01/18   0:10    8.6    8.6    8.5    93    7.5  30.0    SW   2.50  38.0    SW    2.8    8.8    3.0   999.2  0.00  0.05   0.034   0.000   23.3    38    8.2   22.7   7.39  .0725    117    1    100.0    5 
18/01/18   0:15    8.7    8.7    8.6    93    7.7  31.0    SW   2.58  42.0    SW    2.9    8.9    3.1   998.8  0.00  0.05   0.033   0.000   23.3    38    8.2   22.7   7.39  .0725    117    1    100.0    5 
18/01/18   0:20    8.8    8.8    8.7    93    7.8  32.0    SW   2.67  42.0    SW    2.9    9.0    3.1   998.7  0.00  0.00   0.033   0.000   23.3    38    8.2   22.7   7.39  .0725    116    1    100.0    5 
18/01/18   0:25    8.8    8.8    8.8    93    7.8  33.0    SW   2.75  40.0    SW    2.9    9.0    3.1   998.4  0.00  0.00   0.033   0.000   23.3    38    8.2   22.7   7.39  .0725    117    1    100.0    5 
18/01/18   0:30    8.9    8.9    8.8    93    7.8  33.0    SW   2.75  44.0    SW    2.9    9.1    3.1   998.4  0.00  0.00   0.033   0.000   23.3    38    8.2   22.7   7.39  .0725    117    1    100.0    5 
18/01/18   0:35    8.9    8.9    8.8    93    7.9  32.0    SW   2.67  40.0    SW    3.1    9.1    3.2   998.4  0.00  0.00   0.033   0.000   23.3    38    8.2   22.7   7.39  .0725    117    1    100.0    5 
18/01/18   0:40    8.9    8.9    8.9    93    7.8  30.0    SW   2.50  38.0    SW    3.2    9.1    3.3   997.9  0.00  0.00   0.033   0.000   23.3    38    8.2   22.7   7.39  .0725    116    1    100.0    5 
18/01/18   0:45    9.1    9.1    8.9    93    8.0  34.0    SW   2.83  45.0   WSW    3.1    9.3    3.3   998.1  0.00  0.00   0.032   0.000   23.3    38    8.2   22.7   7.39  .0725    118    1    100.0    5 
18/01/18   0:50    9.2    9.2    9.1    92    7.9  32.0   WSW   2.67  43.0    SW    3.3    9.3    3.5   997.9  0.00  0.00   0.032   0.000   23.3    38    8.2   22.7   7.39  .0725    117    1    100.0    5 
18/01/18   0:55    9.4    9.4    9.2    92    8.2  34.0   WSW   2.83  42.0    SW    3.4    9.6    3.7   997.8  0.00  0.00   0.031   0.000   23.3    38    8.2   22.7   7.39  .0725    117    1    100.0    5 
18/01/18   1:00    9.3    9.4    9.3    92    8.1  32.0   WSW   2.67  43.0   WSW    3.6    9.6    3.8   997.6  0.00  0.00   0.031   0.000   23.3    38    8.2   22.7   7.39  .0724    117    1    100.0    5 
18/01/18   1:05    9.3    9.4    9.3    92    8.1  32.0   WSW   2.67  42.0   WSW    3.6    9.6    3.8   997.6  0.00  0.00   0.031   0.000   23.3    38    8.2   22.7   7.39  .0724    116    1    100.0    5 
18/01/18   1:10    9.4    9.4    9.3    92    8.2  33.0   WSW   2.75  44.0   WSW    3.5    9.6    3.7   997.2  0.00  0.00   0.031   0.000   23.3    39    8.5   22.7   7.57  .0724    116    1    100.0    5 
18/01/18   1:15    9.4    9.4    9.3    92    8.2  33.0   WSW   2.75  43.0   WSW    3.5    9.6    3.7   997.1  0.00  0.00   0.031   0.000   23.3    39    8.5   22.7   7.57  .0724    116    1    100.0    5 
18/01/18   1:20    9.4    9.4    9.4    92    8.2  33.0   WSW   2.75  45.0   WSW    3.6    9.7    3.8   996.9  0.00  0.00   0.031   0.000   23.2    39    8.5   22.6   7.57  .0724    117    1    100.0    5 
18/01/18   1:25    9.4    9.4    9.4    92    8.2  32.0   WSW   2.67  41.0    SW    3.6    9.6    3.8   996.8  0.00  0.00   0.031   0.000   23.2    39    8.4   22.6   7.58  .0724    115    1    100.0    5 
18/01/18   1:30    9.3    9.4    9.3    92    8.1  32.0   WSW   2.67  40.0    SW    3.6    9.6    3.8   996.7  0.00  0.00   0.031   0.000   23.2    39    8.4   22.6   7.58  .0724    117    1    100.0    5 
18/01/18   1:35    9.3    9.4    9.3    92    8.0  33.0   WSW   2.75  42.0    SW    3.4    9.5    3.6   996.5  0.00  0.00   0.031   0.000   23.1    39    8.4   22.5   7.58  .0724    115    1    100.0    5 
18/01/18   1:40    9.3    9.4    9.3    93    8.2  34.0   WSW   2.83  44.0    SW    3.3    9.5    3.5   996.4  0.00  0.00   0.031   0.000   23.1    39    8.4   22.5   7.58  .0724    117    1    100.0    5 
18/01/18   1:45    9.3    9.3    9.3    93    8.3  34.0   WSW   2.83  43.0    SW    3.4    9.6    3.6   996.3  0.00  0.00   0.031   0.000   23.1    39    8.4   22.5   7.58  .0724    117    1    100.0    5 
18/01/18   1:50    9.3    9.3    9.3    93    8.2  31.0   WSW   2.58  41.0   WSW    3.5    9.5    3.7   996.2  0.00  0.00   0.031   0.000   23.1    39    8.3   22.4   7.58  .0724    117    1    100.0    5 
18/01/18   1:55    9.3    9.3    9.3    93    8.3  29.0   WSW   2.42  45.0   WSW    3.8    9.6    4.0   996.1  0.00  0.00   0.031   0.000   23.1    39    8.4   22.5   7.58  .0724    117    1    100.0    5 
18/01/18   2:00    9.3    9.3    9.3    93    8.3  28.0   WSW   2.33  37.0   WSW    3.9    9.6    4.1   996.1  0.00  0.00   0.031   0.000   23.1    40    8.8   22.5   7.68  .0723    117    1    100.0    5 
18/01/18   2:05    9.4    9.4    9.3    93    8.3  29.0   WSW   2.42  39.0   WSW    3.8    9.6    4.1   995.9  0.00  0.00   0.031   0.000   23.2    40    8.8   22.6   7.68  .0723    117    1    100.0    5 
18/01/18   2:10    9.4    9.5    9.4    93    8.4  30.0   WSW   2.50  42.0   WSW    3.8    9.7    4.1   995.8  0.00  0.00   0.031   0.000   23.2    40    8.9   22.7   7.67  .0723    117    1    100.0    5 
18/01/18   2:15    9.6    9.6    9.4    93    8.5  30.0   WSW   2.50  41.0   WSW    3.9    9.8    4.2   995.8  0.00  0.00   0.030   0.000   23.3    40    8.9   22.8   7.67  .0723    117    1    100.0    5 
18/01/18   2:20    9.7    9.7    9.6    92    8.4  31.0   WSW   2.58  46.0   WSW    4.0    9.9    4.2   995.6  0.00  0.00   0.030   0.000   23.3    40    8.9   22.8   7.67  .0722    116    1    100.0    5 
18/01/18   2:25    9.8    9.8    9.6    92    8.5  30.0   WSW   2.50  41.0   WSW    4.2   10.0    4.4   995.6  0.00  0.00   0.030   0.000   23.3    40    9.0   22.8   7.67  .0722    117    1    100.0    5 
18/01/18   2:30    9.7    9.8    9.7    92    8.4  25.0   WSW   2.08  35.0   WSW    4.5    9.9    4.7   995.6  0.00  0.00   0.030   0.000   23.3    40    9.0   22.8   7.67  .0722    117    1    100.0    5 
18/01/18   2:35    9.7    9.7    9.7    92    8.5  26.0   WSW   2.17  38.0   WSW    4.5    9.9    4.7   995.5  0.00  0.00   0.030   0.000   23.3    40    9.0   22.8   7.67  .0722    117    1    100.0    5 
18/01/18   2:40    9.8    9.8    9.7    92    8.5  30.0   WSW   2.50  47.0   WSW    4.2   10.0    4.4   995.5  0.00  0.00   0.030   0.000   23.3    40    9.0   22.8   7.67  .0722    115    1    100.0    5 
18/01/18   2:45    9.9    9.9    9.8    92    8.6  30.0   WSW   2.50  47.0   WSW    4.3   10.1    4.6   995.6  0.00  0.00   0.029   0.000   23.3    40    9.0   22.8   7.67  .0722    117    1    100.0    5 
18/01/18   2:50    9.9    9.9    9.9    92    8.6  28.0   WSW   2.33  40.0   WSW    4.5   10.1    4.7   995.4  0.00  0.00   0.029   0.000   23.3    40    8.9   22.8   7.67  .0722    117    1    100.0    5 
18/01/18   2:55    9.9   10.0    9.9    91    8.5  28.0   WSW   2.33  39.0   WSW    4.6   10.1    4.7   995.4  0.00  0.00   0.029   0.000   23.3    40    8.9   22.8   7.67  .0722    117    1    100.0    5 
18/01/18   3:00   10.0   10.0    9.9    91    8.6  28.0   WSW   2.33  42.0   WSW    4.6   10.2    4.8   995.2  0.00  0.00   0.029   0.000   23.2    40    8.9   22.7   7.67  .0722    117    1    100.0    5 
18/01/18   3:05   10.0   10.0   10.0    91    8.6  26.0   WSW   2.17  36.0   WSW    4.8   10.2    4.9   995.2  0.00  0.00   0.029   0.000   23.2    41    9.2   22.7   7.80  .0722    116    1    100.0    5 
18/01/18   3:10   10.0   10.0    9.9    91    8.6  24.0   WSW   2.00  40.0     W    5.0   10.2    5.2   995.2  0.00  0.00   0.029   0.000   23.2    41    9.2   22.7   7.80  .0722    117    1    100.0    5 
18/01/18   3:15   10.0   10.0   10.0    91    8.6  25.0   WSW   2.08  36.0     W    4.9   10.2    5.1   995.1  0.00  0.00   0.029   0.000   23.2    41    9.2   22.7   7.80  .0722    117    1    100.0    5 
18/01/18   3:20    9.9   10.0    9.9    91    8.5  25.0   WSW   2.08  35.0   WSW    4.8   10.1    5.0   995.0  0.00  0.00   0.029   0.000   23.2    41    9.2   22.6   7.80  .0722    117    1    100.0    5 
18/01/18   3:25    9.8    9.9    9.8    91    8.4  25.0   WSW   2.08  35.0   WSW    4.7    9.9    4.8   994.9  0.00  0.00   0.030   0.000   23.2    41    9.2   22.6   7.80  .0722    117    1    100.0    5 
18/01/18   3:30    9.8    9.8    9.8    91    8.4  26.0   WSW   2.17  36.0   WSW    4.6    9.9    4.7   994.8  0.00  0.00   0.030   0.000   23.2    41    9.2   22.6   7.80  .0722    117    1    100.0    5 
18/01/18   3:35    9.8    9.8    9.8    91    8.4  25.0   WSW   2.08  39.0   WSW    4.7   10.0    4.9   994.9  0.00  0.00   0.030   0.000   23.2    41    9.2   22.6   7.80  .0722    116    1    100.0    5 
18/01/18   3:40    9.9    9.9    9.8    90    8.4  26.0   WSW   2.17  38.0     W    4.7   10.1    4.9   994.7  0.00  0.00   0.029   0.000   23.1    41    9.1   22.6   7.81  .0722    117    1    100.0    5 
18/01/18   3:45    9.8    9.9    9.8    90    8.3  29.0   WSW   2.42  39.0   WSW    4.3   10.0    4.5   994.6  0.00  0.00   0.030   0.000   23.1    41    9.1   22.6   7.81  .0722    117    1    100.0    5 
18/01/18   3:50    9.7    9.8    9.7    90    8.2  29.0   WSW   2.42  40.0   WSW    4.2    9.9    4.4   994.6  0.00  0.00   0.030   0.000   23.2    41    9.2   22.6   7.80  .0722    117    1    100.0    5 
18/01/18   3:55    9.8    9.8    9.7    91    8.4  28.0   WSW   2.33  37.0   WSW    4.4    9.9    4.6   994.5  0.00  0.00   0.030   0.000   23.3    41    9.3   22.8   7.79  .0721    117    1    100.0    5 
18/01/18   4:00    9.8    9.8    9.8    91    8.4  28.0   WSW   2.33  39.0   WSW    4.4    9.9    4.6   994.4  0.00  0.00   0.030   0.000   23.4    41    9.4   22.9   7.79  .0721    117    1    100.0    5 
18/01/18   4:05    9.8    9.8    9.8    91    8.4  26.0   WSW   2.17  37.0   WSW    4.6    9.9    4.7   994.3  0.00  0.00   0.030   0.000   23.4    41    9.4   22.9   7.79  .0721    117    1    100.0    5 
18/01/18   4:10    9.8    9.8    9.8    91    8.4  26.0   WSW   2.17  36.0   WSW    4.6    9.9    4.7   994.3  0.00  0.00   0.030   0.000   23.4    41    9.4   22.9   7.79  .0721    117    1    100.0    5 
18/01/18   4:15    9.8    9.8    9.8    91    8.4  25.0   WSW   2.08  33.0   WSW    4.7    9.9    4.8   994.3  0.00  0.00   0.030   0.000   23.4    41    9.4   22.9   7.79  .0721    117    1    100.0    5 
18/01/18   4:20    9.8    9.8    9.8    91    8.4  22.0   WSW   1.83  36.0   WSW    5.1   10.0    5.2   994.3  0.00  0.00   0.030   0.000   23.4    41    9.4   22.9   7.79  .0721    116    1    100.0    5 
18/01/18   4:25    9.8    9.9    9.8    91    8.4  24.0   WSW   2.00  33.0   WSW    4.8   10.0    5.0   994.3  0.00  0.00   0.030   0.000   23.4    41    9.4   22.9   7.79  .0721    117    1    100.0    5 
18/01/18   4:30    9.8    9.9    9.8    91    8.4  24.0   WSW   2.00  35.0   WSW    4.8   10.0    5.0   994.2  0.00  0.00   0.030   0.000   23.3    41    9.3   22.9   7.79  .0721    116    1    100.0    5 
18/01/18   4:35    9.8    9.8    9.8    91    8.4  25.0   WSW   2.08  35.0     W    4.7   10.0    4.9   994.3  0.00  0.00   0.030   0.000   23.3    41    9.3   22.9   7.79  .0721    117    1    100.0    5 
18/01/18   4:40    9.9    9.9    9.8    89    8.2  26.0   WSW   2.17  36.0     W    4.7   10.1    4.8   994.5  0.00  0.00   0.029   0.000   23.3    41    9.3   22.9   7.79  .0721    115    1    100.0    5 
18/01/18   4:45   10.0   10.0    9.9    88    8.1  27.0   WSW   2.25  38.0     W    4.7   10.1    4.8   994.5  0.00  0.00   0.029   0.000   23.3    41    9.3   22.8   7.79  .0721    117    1    100.0    5 
18/01/18   4:50   10.1   10.1   10.0    88    8.2  25.0   WSW   2.08  42.0     W    5.0   10.2    5.1   994.6  0.00  0.00   0.029   0.000   23.3    41    9.3   22.8   7.79  .0722    117    1    100.0    5 
18/01/18   4:55   10.1   10.1   10.1    88    8.2  22.0   WSW   1.83  35.0   WSW    5.3   10.2    5.4   994.8  0.00  0.00   0.029   0.000   23.2    41    9.2   22.7   7.80  .0722    117    1    100.0    5 
18/01/18   5:00   10.0   10.1   10.0    87    7.9  23.0   WSW   1.92  34.0   WSW    5.1   10.1    5.2   994.8  0.00  0.00   0.029   0.000   23.2    41    9.2   22.7   7.80  .0722    118    1    100.0    5 
18/01/18   5:05   10.2   10.2   10.0    84    7.6  24.0     W   2.00  37.0   WSW    5.2   10.2    5.2   995.1  0.00  0.00   0.028   0.000   23.2    41    9.2   22.7   7.80  .0722    116    1    100.0    5 
18/01/18   5:10   10.4   10.4   10.2    82    7.5  21.0     W   1.75  35.0   WSW    5.8   10.4    5.8   995.2  0.00  0.00   0.027   0.000   23.2    41    9.2   22.7   7.80  .0722    117    1    100.0    5 
18/01/18   5:15   10.6   10.6   10.4    79    7.1  23.0     W   1.92  39.0     W    5.7   10.5    5.7   995.5  0.00  0.00   0.027   0.000   23.2    41    9.2   22.6   7.80  .0722    117    1    100.0    5 
18/01/18   5:20   10.5   10.6   10.5    74    6.1  22.0     W   1.83  39.0     W    5.8   10.3    5.6   995.8  0.00  0.00   0.027   0.000   23.2    41    9.2   22.6   7.80  .0723    117    1    100.0    5 
18/01/18   5:25   10.4   10.5   10.3    74    6.0  23.0     W   1.92  40.0   WSW    5.6   10.3    5.4   995.9  0.00  0.00   0.027   0.000   23.2    41    9.2   22.6   7.80  .0723    117    1    100.0    5 
18/01/18   5:30   10.5   10.5   10.4    73    5.9  23.0     W   1.92  37.0     W    5.7   10.3    5.4   995.9  0.00  0.00   0.027   0.000   23.2    41    9.2   22.7   7.80  .0723    116    1    100.0    5 
18/01/18   5:35   10.5   10.5   10.4    73    5.9  20.0     W   1.67  35.0     W    6.1   10.3    5.8   996.2  0.00  0.00   0.027   0.000   23.3    41    9.3   22.9   7.79  .0722    116    1    100.0    5 
18/01/18   5:40   10.4   10.5   10.4    72    5.6  18.0     W   1.50  31.0     W    6.3   10.2    6.1   996.0  0.00  0.00   0.027   0.000   23.4    41    9.4   22.9   7.79  .0722    117    1    100.0    5 
18/01/18   5:45   10.4   10.5   10.4    72    5.6  21.0     W   1.75  31.0   WNW    5.8   10.2    5.6   996.3  0.00  0.00   0.027   0.000   23.4    41    9.4   22.9   7.79  .0722    117    1    100.0    5 
18/01/18   5:50   10.4   10.5   10.4    72    5.6  18.0     W   1.50  30.0     W    6.2   10.2    5.9   996.6  0.00  0.00   0.028   0.000   23.4    41    9.4   23.0   7.78  .0722    116    1    100.0    5 
18/01/18   5:55   10.3   10.4   10.3    72    5.4  16.0     W   1.33  29.0     W    6.4   10.1    6.2   996.9  0.00  0.00   0.028   0.000   23.4    41    9.4   23.0   7.78  .0723    117    1    100.0    5 
18/01/18   6:00   10.1   10.3   10.1    70    4.8  21.0     W   1.75  37.0     W    5.4    9.8    5.2   997.1  0.00  0.00   0.029   0.000   23.4    41    9.4   23.0   7.78  .0723    117    1    100.0    5 
18/01/18   6:05    9.9   10.1    9.9    69    4.5  21.0     W   1.75  38.0     W    5.2    9.7    5.0   997.3  0.00  0.00   0.029   0.000   23.4    41    9.4   23.0   7.78  .0723    117    1    100.0    5 
18/01/18   6:10    9.8    9.9    9.8    69    4.4  19.0     W   1.58  35.0   WNW    5.3    9.6    5.1   997.2  0.00  0.00   0.030   0.000   23.4    41    9.4   22.9   7.79  .0723    117    1    100.0    5 
18/01/18   6:15    9.7    9.8    9.7    69    4.3  22.0     W   1.83  35.0     W    4.8    9.4    4.6   997.5  0.00  0.00   0.030   0.000   23.4    41    9.4   22.9   7.79  .0723    117    1    100.0    5 
18/01/18   6:20    9.6    9.7    9.6    69    4.1  22.0     W   1.83  37.0   WNW    4.7    9.3    4.5   997.5  0.00  0.00   0.030   0.000   23.4    41    9.4   22.9   7.79  .0723    117    1    100.0    5 
18/01/18   6:25    9.5    9.6    9.5    70    4.3  21.0     W   1.75  34.0     W    4.8    9.3    4.6   997.8  0.00  0.00   0.031   0.000   23.3    41    9.3   22.9   7.79  .0724    117    1    100.0    5 
18/01/18   6:30    9.3    9.5    9.3    70    4.1  17.0     W   1.42  30.0     W    5.2    9.1    4.9   997.8  0.00  0.00   0.031   0.000   23.3    41    9.3   22.9   7.79  .0724    117    1    100.0    5 
18/01/18   6:35    9.3    9.3    9.3    70    4.1  17.0     W   1.42  32.0   WSW    5.1    9.1    4.8   997.9  0.00  0.00   0.031   0.000   23.3    40    8.9   22.8   7.67  .0724    117    1    100.0    5 
18/01/18   6:40    9.1    9.3    9.1    70    3.9  18.0     W   1.50  29.0     W    4.7    8.8    4.4   998.1  0.00  0.00   0.032   0.000   23.3    41    9.3   22.8   7.79  .0724    117    1    100.0    5 
18/01/18   6:45    9.1    9.1    9.1    70    3.9  18.0     W   1.50  33.0     W    4.7    8.8    4.4   998.4  0.00  0.00   0.032   0.000   23.2    40    8.9   22.7   7.67  .0725    117    1    100.0    5 
18/01/18   6:50    8.9    9.1    8.9    71    4.0  16.0     W   1.33  28.0     W    4.8    8.7    4.6   998.6  0.00  0.00   0.033   0.000   23.2    40    8.9   22.7   7.67  .0725    117    1    100.0    5 
18/01/18   6:55    8.8    8.9    8.8    71    3.9  17.0     W   1.42  31.0     W    4.6    8.6    4.3   998.8  0.00  0.00   0.033   0.000   23.2    40    8.9   22.7   7.67  .0725    114    1    100.0    5 
18/01/18   7:00    8.8    8.8    8.8    71    3.8  17.0     W   1.42  32.0   WSW    4.5    8.5    4.2   998.9  0.00  0.00   0.033   0.000   23.2    40    8.9   22.7   7.67  .0725    117    1    100.0    5 
18/01/18   7:05    8.7    8.8    8.7    71    3.7  16.0     W   1.33  32.0     W    4.6    8.4    4.3   999.1  0.00  0.00   0.034   0.000   23.2    40    8.8   22.6   7.68  .0725    113    1     99.1    5 
18/01/18   7:10    8.6    8.7    8.6    71    3.6  18.0     W   1.50  26.0     W    4.1    8.3    3.8   999.3  0.00  0.00   0.034   0.000   23.2    40    8.8   22.6   7.68  .0725    116    1    100.0    5 
18/01/18   7:15    8.5    8.6    8.5    72    3.7  14.0     W   1.17  26.0     W    4.7    8.3    4.4   999.4  0.00  0.00   0.034   0.000   23.2    40    8.8   22.6   7.68  .0726    117    1    100.0    5 
18/01/18   7:20    8.4    8.5    8.3    73    3.8  15.0     W   1.25  25.0     W    4.4    8.2    4.2   999.5  0.00  0.00   0.035   0.000   23.2    40    8.8   22.6   7.68  .0726    115    1    100.0    5 
18/01/18   7:25    8.3    8.4    8.3    73    3.7  16.0     W   1.33  29.0     W    4.1    8.1    3.9   999.6  0.00  0.00   0.035   0.000   23.2    40    8.9   22.7   7.67  .0726    114    1    100.0    5 
18/01/18   7:30    8.2    8.3    8.2    73    3.7  15.0     W   1.25  24.0     W    4.2    8.0    4.0   999.7  0.00  0.00   0.035   0.000   23.3    40    8.9   22.8   7.67  .0725    117    1    100.0    5 
18/01/18   7:35    8.1    8.2    8.1    74    3.8  13.0     W   1.08  29.0   WSW    4.4    7.9    4.2   999.8  0.00  0.00   0.035   0.000   23.3    40    9.0   22.8   7.67  .0725    116    1    100.0    5 
18/01/18   7:40    8.0    8.1    8.0    74    3.6  14.0     W   1.17  24.0     W    4.1    7.8    3.9   999.8  0.00  0.00   0.036   0.000   23.4    40    9.0   22.9   7.67  .0725    117    1    100.0    5 
18/01/18   7:45    7.9    8.1    7.9    74    3.6  15.0     W   1.25  25.0     W    3.9    7.7    3.7  1000.0  0.00  0.00   0.036   0.000   23.4    40    9.1   22.9   7.67  .0725    116    1    100.0    5 
18/01/18   7:50    7.9    7.9    7.9    74    3.6  17.0     W   1.42  24.0     W    3.6    7.7    3.3  1000.1  0.00  0.00   0.036   0.000   23.4    40    9.1   22.9   7.67  .0725    117    1    100.0    5 
18/01/18   7:55    7.9    7.9    7.9    74    3.5  14.0     W   1.17  22.0   WNW    4.0    7.7    3.8  1000.2  0.00  0.00   0.036   0.000   23.4    40    9.1   22.9   7.67  .0725    117    1    100.0    5 
18/01/18   8:00    7.8    7.9    7.8    74    3.5  14.0     W   1.17  26.0     W    3.9    7.6    3.7  1000.3  0.00  0.00   0.036   0.000   23.4    40    9.1   22.9   7.67  .0725    117    1    100.0    5 
18/01/18   8:05    7.8    7.8    7.8    74    3.4  13.0     W   1.08  25.0   WNW    4.1    7.6    3.8  1000.5  0.00  0.00   0.037   0.000   23.4    40    9.1   22.9   7.67  .0726    115    1    100.0    5 
18/01/18   8:10    7.7    7.8    7.7    75    3.6  15.0     W   1.25  23.0     W    3.6    7.5    3.4  1000.6  0.00  0.00   0.037   0.000   23.4    40    9.1   22.9   7.67  .0726    117    1    100.0    5 
18/01/18   8:15    7.7    7.7    7.7    75    3.5  14.0     W   1.17  25.0     W    3.8    7.4    3.6  1000.7  0.00  0.00   0.037   0.000   23.4    40    9.1   22.9   7.67  .0726    118    1    100.0    5 
18/01/18   8:20    7.7    7.7    7.7    75    3.5  13.0     W   1.08  23.0     W    3.9    7.4    3.7  1000.9  0.00  0.00   0.037   0.000   23.4    40    9.0   22.9   7.67  .0726    116    1    100.0    5 
18/01/18   8:25    7.7    7.7    7.6    75    3.5  10.0     W   0.83  19.0   WNW    4.7    7.4    4.4  1001.0  0.00  0.00   0.037   0.000   23.3    40    9.0   22.8   7.67  .0726    115    1    100.0    5 
18/01/18   8:30    7.7    7.7    7.7    76    3.7  11.0     W   0.92  24.0   WNW    4.4    7.4    4.2  1001.2  0.00  0.00   0.037   0.000   23.3    40    9.0   22.8   7.67  .0726    116    1    100.0    5 
18/01/18   8:35    7.6    7.7    7.6    76    3.6  10.0     W   0.83  19.0     W    4.6    7.3    4.3  1001.4  0.00  0.00   0.037   0.000   23.3    40    9.0   22.8   7.67  .0727    117    1    100.0    5 
18/01/18   8:40    7.6    7.6    7.6    76    3.6  10.0     W   0.83  16.0     W    4.6    7.3    4.3  1001.5  0.00  0.00   0.037   0.000   23.3    40    9.0   22.8   7.67  .0727    117    1    100.0    5 
18/01/18   8:45    7.6    7.6    7.5    77    3.8  11.0     W   0.92  17.0   WSW    4.3    7.4    4.1  1001.6  0.00  0.00   0.037   0.000   23.3    40    9.0   22.8   7.67  .0727    115    1    100.0    5 
18/01/18   8:50    7.6    7.6    7.6    78    4.0  11.0     W   0.92  19.0     W    4.3    7.4    4.1  1001.8  0.00  0.00   0.037   0.000   23.3    40    9.0   22.8   7.67  .0727    116    1    100.0    5 
18/01/18   8:55    7.6    7.6    7.6    78    4.0  12.0     W   1.00  17.0     W    4.1    7.4    3.9  1001.8  0.00  0.00   0.037   0.000   23.3    40    9.0   22.8   7.67  .0727    117    1    100.0    5 
18/01/18   9:00    7.6    7.6    7.6    78    4.0  13.0     W   1.08  21.0   WSW    3.8    7.4    3.7  1002.0  0.00  0.00   0.037   0.000   23.3    40    9.0   22.8   7.67  .0727    115    1    100.0    5 
18/01/18   9:05    7.6    7.6    7.6    78    4.0  12.0     W   1.00  19.0   WNW    4.1    7.4    3.9  1002.1  0.00  0.00   0.037   0.000   23.4    41    9.4   22.9   7.79  .0727    117    1    100.0    5 
18/01/18   9:10    7.7    7.7    7.6    78    4.1   8.0     W   0.67  17.0     W    5.3    7.5    5.2  1002.2  0.00  0.00   0.037   0.000   23.4    40    9.1   22.9   7.67  .0727    115    1    100.0    5 
18/01/18   9:15    7.7    7.7    7.7    78    4.1  10.0     W   0.83  16.0     W    4.7    7.5    4.5  1002.3  0.00  0.00   0.037   0.000   23.4    40    9.1   22.9   7.67  .0727    115    1    100.0    5 
18/01/18   9:20    7.7    7.7    7.7    78    4.1  11.0     W   0.92  20.0    SW    4.5    7.6    4.3  1002.4  0.00  0.00   0.037   0.000   23.5    40    9.1   23.0   7.66  .0727    118    1    100.0    5 
18/01/18   9:25    7.8    7.8    7.7    78    4.2  10.0     W   0.83  18.0     W    4.8    7.6    4.6  1002.4  0.00  0.00   0.037   0.000   23.6    40    9.2   23.1   7.66  .0727    116    1    100.0    5 
18/01/18   9:30    7.9    7.9    7.8    77    4.1  11.0     W   0.92  19.0     W    4.7    7.7    4.5  1002.5  0.00  0.00   0.036   0.000   23.6    40    9.2   23.1   7.66  .0727    116    1    100.0    5 
18/01/18   9:35    7.9    7.9    7.8    77    4.2  11.0     W   0.92  17.0     W    4.7    7.8    4.6  1002.5  0.00  0.00   0.036   0.000   23.6    39    8.8   23.1   7.56  .0727    116    1    100.0    5 
18/01/18   9:40    8.0    8.0    7.9    77    4.2  12.0   WSW   1.00  18.0   WSW    4.6    7.8    4.4  1002.5  0.00  0.00   0.036   0.000   23.7    39    8.9   23.2   7.56  .0727    117    1    100.0    5 
18/01/18   9:45    8.1    8.1    8.0    77    4.3  11.0     W   0.92  19.0   WSW    4.9    7.9    4.7  1002.4  0.00  0.00   0.036   0.000   23.7    39    8.9   23.2   7.56  .0727    117    1    100.0    5 
18/01/18   9:50    8.1    8.1    8.1    76    4.1  15.0     W   1.25  23.0   WSW    4.1    7.9    3.9  1002.5  0.00  0.00   0.035   0.000   23.7    39    8.9   23.2   7.56  .0727    116    1    100.0    5 
18/01/18   9:55    8.2    8.2    8.1    76    4.2  15.0     W   1.25  23.0     W    4.1    8.0    3.9  1002.5  0.00  0.00   0.035   0.000   23.7    39    8.9   23.2   7.56  .0727    117    1    100.0    5 
18/01/18  10:00    8.2    8.2    8.2    76    4.2  14.0   WSW   1.17  20.0   WSW    4.4    8.1    4.2  1002.7  0.00  0.00   0.035   0.000   23.7    39    8.9   23.2   7.56  .0727    115    1    100.0    5 
18/01/18  10:05    8.3    8.3    8.2    75    4.2  13.0     W   1.08  21.0     W    4.7    8.2    4.6  1002.8  0.00  0.00   0.035   0.000   23.7    39    8.9   23.2   7.56  .0727    116    1    100.0    5 
18/01/18  10:10    8.4    8.4    8.3    75    4.3  10.0     W   0.83  18.0     W    5.6    8.3    5.4  1002.8  0.00  0.00   0.034   0.000   23.7    39    8.9   23.2   7.56  .0727    117    1    100.0    5 
18/01/18  10:15    8.6    8.6    8.4    74    4.2  12.0     W   1.00  20.0     W    5.2    8.4    5.0  1003.0  0.00  0.00   0.034   0.000   23.7    39    8.9   23.2   7.56  .0727    116    1    100.0    5 
18/01/18  10:20    8.6    8.6    8.6    74    4.2  11.0     W   0.92  17.0     W    5.5    8.4    5.3  1002.9  0.00  0.00   0.034   0.000   23.7    39    8.9   23.2   7.56  .0727    118    1    100.0    5 
18/01/18  10:25    8.7    8.7    8.6    73    4.1  12.0     W   1.00  18.0     W    5.3    8.4    5.1  1003.0  0.00  0.00   0.034   0.000   23.8    39    9.0   23.3   7.55  .0727    117    1    100.0    5 
18/01/18  10:30    8.7    8.7    8.7    73    4.1  14.0   WSW   1.17  19.0     W    4.9    8.4    4.7  1003.0  0.00  0.00   0.034   0.000   23.8    39    9.0   23.3   7.55  .0726    117    1    100.0    5 
18/01/18  10:35    8.7    8.7    8.7    74    4.3  13.0     W   1.08  20.0     W    5.2    8.6    5.0  1003.0  0.00  0.00   0.033   0.000   23.8    38    8.7   23.3   7.35  .0727    117    1    100.0    5 
18/01/18  10:40    8.8    8.8    8.7    74    4.4  12.0     W   1.00  18.0   WSW    5.4    8.6    5.3  1003.1  0.00  0.00   0.033   0.000   23.9    38    8.7   23.3   7.35  .0727    117    1    100.0    5 
18/01/18  10:45    8.8    8.8    8.8    74    4.4  13.0   WSW   1.08  20.0   WSW    5.2    8.6    5.1  1003.1  0.00  0.00   0.033   0.000   23.9    38    8.7   23.3   7.35  .0727    116    1    100.0    5 
18/01/18  10:50    8.8    8.8    8.8    75    4.6  14.0   WSW   1.17  21.0   WSW    5.0    8.6    4.8  1003.0  0.00  0.00   0.033   0.000   23.9    38    8.8   23.4   7.35  .0726    117    1    100.0    5 
18/01/18  10:55    8.8    8.8    8.8    77    5.0  13.0   WSW   1.08  19.0     W    5.3    8.7    5.2  1003.1  0.00  0.00   0.033   0.000   23.9    38    8.8   23.4   7.35  .0726    116    1    100.0    5 
18/01/18  11:00    8.9    8.9    8.8    78    5.3  12.0   WSW   1.00  17.0     W    5.6    8.8    5.4  1003.2  0.00  0.00   0.033   0.000   23.9    38    8.8   23.4   7.35  .0726    116    1    100.0    5 
18/01/18  11:05    8.9    8.9    8.9    79    5.5  12.0   WSW   1.00  18.0   WSW    5.6    8.9    5.6  1003.2  0.00  0.00   0.033   0.000   24.0    38    8.8   23.4   7.35  .0726    117    1    100.0    5 
18/01/18  11:10    9.1    9.1    8.9    79    5.7  13.0   WSW   1.08  18.0   WSW    5.6    9.1    5.5  1003.2  0.00  0.00   0.032   0.000   24.0    38    8.8   23.4   7.35  .0726    116    1    100.0    5 
18/01/18  11:15    9.0    9.1    9.0    78    5.4  12.0   WSW   1.00  18.0   WSW    5.7    8.9    5.6  1003.1  0.00  0.00   0.032   0.000   24.1    38    8.9   23.5   7.34  .0726    117    1    100.0    5 
18/01/18  11:20    8.6    9.0    8.6    79    5.2  13.0   WSW   1.08  20.0   WSW    5.1    8.5    4.9  1003.1  0.00  0.00   0.034   0.000   24.1    38    8.9   23.5   7.34  .0726    117    1    100.0    5 
18/01/18  11:25    8.4    8.6    8.4    80    5.2  14.0   WSW   1.17  18.0   WSW    4.6    8.3    4.5  1003.1  0.00  0.00   0.034   0.000   24.1    37    8.5   23.5   7.24  .0726    118    1    100.0    5 
18/01/18  11:30    8.3    8.4    8.3    80    5.0  14.0   WSW   1.17  20.0   WSW    4.4    8.2    4.3  1003.2  0.00  0.00   0.035   0.000   24.1    38    8.9   23.5   7.34  .0726    117    1    100.0    5 
18/01/18  11:35    8.3    8.3    8.2    81    5.2  13.0   WSW   1.08  17.0     W    4.7    8.2    4.6  1003.1  0.00  0.00   0.035   0.000   24.1    38    8.9   23.5   7.34  .0726    117    1    100.0    5 
18/01/18  11:40    8.4    8.4    8.3    81    5.3  13.0   WSW   1.08  19.0   WSW    4.8    8.3    4.7  1003.1  0.00  0.00   0.035   0.000   24.1    38    8.9   23.5   7.34  .0726    117    1    100.0    5 
18/01/18  11:45    8.4    8.4    8.4    81    5.4  13.0   WSW   1.08  18.0     W    4.8    8.4    4.8  1003.0  0.00  0.00   0.034   0.000   24.1    38    8.9   23.5   7.34  .0726    117    1    100.0    5 
18/01/18  11:50    8.6    8.6    8.4    81    5.5  13.0   WSW   1.08  21.0   WSW    5.1    8.6    5.0  1003.0  0.00  0.00   0.034   0.000   24.1    38    8.9   23.5   7.34  .0726    115    1    100.0    5 
18/01/18  11:55    8.6    8.7    8.6    80    5.4  15.0   WSW   1.25  20.0   WSW    4.6    8.5    4.5  1003.0  0.00  0.00   0.034   0.000   24.1    38    8.9   23.5   7.34  .0726    117    1    100.0    5 
18/01/18  12:00    8.5    8.6    8.5    81    5.4  11.0   WSW   0.92  15.0   WSW    5.4    8.4    5.3  1002.8  0.00  0.00   0.034   0.000   24.1    38    8.9   23.5   7.34  .0726    117    1    100.0    5 
18/01/18  12:05    8.6    8.6    8.5    81    5.5  11.0   WSW   0.92  17.0   WSW    5.5    8.6    5.4  1002.8  0.00  0.00   0.034   0.000   24.0    38    8.8   23.4   7.35  .0726    116    1    100.0    5 
18/01/18  12:10    8.7    8.7    8.6    82    5.8  12.0   WSW   1.00  17.0   WSW    5.3    8.6    5.3  1002.8  0.00  0.00   0.034   0.000   24.0    38    8.8   23.4   7.35  .0726    117    1    100.0    5 
18/01/18  12:15    8.4    8.7    8.4    81    5.4  10.0   WSW   0.83  16.0   WSW    5.6    8.4    5.5  1002.7  0.00  0.00   0.034   0.000   24.1    38    8.9   23.5   7.34  .0726    117    1    100.0    5 
18/01/18  12:20    8.3    8.4    8.3    82    5.4  12.0   WSW   1.00  17.0   WSW    4.9    8.3    4.9  1002.6  0.00  0.00   0.035   0.000   24.1    38    8.9   23.5   7.34  .0726    116    1    100.0    5 
18/01/18  12:25    8.4    8.4    8.3    82    5.5  14.0   WSW   1.17  19.0   WSW    4.6    8.4    4.6  1002.5  0.00  0.00   0.034   0.000   24.1    38    8.9   23.5   7.34  .0726    117    1    100.0    5 
18/01/18  12:30    8.8    8.8    8.4    81    5.7  13.0   WSW   1.08  21.0   WSW    5.2    8.7    5.2  1002.5  0.00  0.00   0.033   0.000   24.1    38    8.9   23.6   7.34  .0726    117    1    100.0    5 
18/01/18  12:35    9.0    9.0    8.8    80    5.7  13.0   WSW   1.08  19.0     W    5.4    8.9    5.4  1002.6  0.00  0.00   0.032   0.000   24.2    38    8.9   23.6   7.34  .0725    117    1    100.0    5 
18/01/18  12:40    9.1    9.1    9.0    80    5.8  13.0   WSW   1.08  18.0   WSW    5.5    9.0    5.4  1002.6  0.00  0.00   0.032   0.000   24.2    38    8.9   23.6   7.34  .0725    117    1    100.0    5 
18/01/18  12:45    8.7    9.1    8.7    80    5.5  12.0   WSW   1.00  18.0   WSW    5.4    8.7    5.3  1002.6  0.00  0.00   0.033   0.000   24.2    38    8.9   23.6   7.34  .0725    115    1    100.0    5 
18/01/18  12:50    8.4    8.7    8.4    81    5.4  14.0   WSW   1.17  21.0   WSW    4.6    8.4    4.6  1002.5  0.00  0.00   0.034   0.000   24.2    38    9.0   23.7   7.34  .0725    117    1    100.0    5 
18/01/18  12:55    8.4    8.4    8.3    82    5.5  13.0   WSW   1.08  18.0   WSW    4.8    8.3    4.7  1002.5  0.00  0.00   0.035   0.000   24.2    38    8.9   23.6   7.34  .0725    116    1    100.0    5 
18/01/18  13:00    8.6    8.6    8.4    82    5.7  11.0   WSW   0.92  16.0   WSW    5.5    8.6    5.4  1002.5  0.00  0.00   0.034   0.000   24.2    38    9.0   23.7   7.34  .0725    117    1    100.0    5 
18/01/18  13:05    9.0    9.0    8.6    82    6.1  10.0   WSW   0.83  16.0   WSW    6.2    8.9    6.2  1002.5  0.00  0.00   0.032   0.000   24.2    38    9.0   23.7   7.34  .0725    117    1    100.0    5 
18/01/18  13:10    9.1    9.1    9.0    81    6.0  10.0   WSW   0.83  14.0     W    6.3    9.1    6.3  1002.4  0.00  0.00   0.032   0.000   24.2    38    9.0   23.7   7.34  .0725    117    1    100.0    5 
18/01/18  13:15    9.2    9.2    9.1    81    6.1  10.0   WSW   0.83  13.0   WSW    6.4    9.1    6.4  1002.4  0.00  0.00   0.032   0.000   24.2    38    9.0   23.7   7.34  .0725    117    1    100.0    5 
18/01/18  13:20    9.1    9.2    9.1    81    6.0  11.0   WSW   0.92  18.0   WSW    6.0    9.0    5.9  1002.3  0.00  0.00   0.032   0.000   24.3    38    9.0   23.7   7.34  .0725    117    1    100.0    5 
18/01/18  13:25    9.2    9.2    9.1    81    6.1  12.0   WSW   1.00  17.0     W    5.9    9.2    5.9  1002.3  0.00  0.00   0.032   0.000   24.3    38    9.1   23.8   7.33  .0725    117    1    100.0    5 
18/01/18  13:30    9.2    9.2    9.2    81    6.1  12.0   WSW   1.00  17.0   WSW    5.9    9.2    5.9  1002.3  0.00  0.00   0.032   0.000   24.4    38    9.1   23.8   7.33  .0725    117    1    100.0    5 
18/01/18  13:35    9.2    9.2    9.2    81    6.1  11.0   WSW   0.92  17.0   WSW    6.2    9.2    6.2  1002.3  0.00  0.00   0.032   0.000   24.4    38    9.1   23.8   7.33  .0724    116    1    100.0    5 
18/01/18  13:40    9.3    9.3    9.2    81    6.2  10.0   WSW   0.83  15.0   WSW    6.6    9.3    6.6  1002.2  0.00  0.00   0.031   0.000   24.4    38    9.2   23.9   7.33  .0724    117    1    100.0    5 
18/01/18  13:45    9.4    9.4    9.3    81    6.3  10.0   WSW   0.83  16.0   WSW    6.7    9.4    6.7  1002.3  0.00  0.00   0.031   0.000   24.4    38    9.2   23.9   7.33  .0724    117    1    100.0    5 
18/01/18  13:50    9.4    9.4    9.4    81    6.3  12.0   WSW   1.00  16.0   WSW    6.2    9.3    6.1  1002.4  0.00  0.00   0.031   0.000   24.5    38    9.2   23.9   7.33  .0724    116    1    100.0    5 
18/01/18  13:55    9.2    9.4    9.2    81    6.1  12.0   WSW   1.00  18.0   WSW    5.9    9.2    5.9  1002.3  0.00  0.00   0.032   0.000   24.5    38    9.2   23.9   7.33  .0724    117    1    100.0    5 
18/01/18  14:00    8.8    9.2    8.8    82    5.9  12.0   WSW   1.00  18.0   WSW    5.5    8.8    5.4  1002.2  0.00  0.00   0.033   0.000   24.5    38    9.2   23.9   7.33  .0724    116    1    100.0    5 
18/01/18  14:05    8.7    8.8    8.7    83    5.9  12.0   WSW   1.00  17.0   WSW    5.3    8.6    5.3  1002.4  0.00  0.00   0.034   0.000   24.5    38    9.2   23.9   7.33  .0724    117    1    100.0    5 
18/01/18  14:10    8.5    8.7    8.5    83    5.8  14.0   WSW   1.17  19.0   WSW    4.7    8.4    4.6  1002.4  0.00  0.00   0.034   0.000   24.5    38    9.2   23.9   7.33  .0724    117    1    100.0    5 
18/01/18  14:15    8.4    8.5    8.4    83    5.7  13.0   WSW   1.08  18.0   WSW    4.8    8.4    4.8  1002.3  0.00  0.00   0.034   0.000   24.4    38    9.2   23.9   7.33  .0724    117    1    100.0    5 
18/01/18  14:20    8.3    8.4    8.3    84    5.8  12.0   WSW   1.00  17.0   WSW    4.9    8.3    4.9  1002.2  0.00  0.00   0.035   0.000   24.4    38    9.2   23.9   7.33  .0724    117    1    100.0    5 
18/01/18  14:25    8.3    8.3    8.3    84    5.7  12.0   WSW   1.00  15.0   WSW    4.9    8.3    4.9  1002.2  0.00  0.00   0.035   0.000   24.4    38    9.1   23.8   7.33  .0724    116    1    100.0    5 
18/01/18  14:30    8.3    8.3    8.3    85    5.9  11.0   WSW   0.92  15.0     W    5.1    8.3    5.1  1002.2  0.00  0.00   0.035   0.000   24.3    38    9.1   23.8   7.33  .0725    117    1    100.0    5 
18/01/18  14:35    8.3    8.3    8.3    85    6.0  10.0   WSW   0.83  14.0     W    5.4    8.3    5.4  1002.4  0.00  0.00   0.035   0.000   24.3    38    9.1   23.8   7.33  .0725    118    1    100.0    5 
18/01/18  14:40    8.4    8.4    8.3    85    6.0  11.0   WSW   0.92  17.0     W    5.2    8.4    5.2  1002.5  0.00  0.00   0.035   0.000   24.3    38    9.0   23.7   7.34  .0725    117    1    100.0    5 
18/01/18  14:45    8.6    8.6    8.3    84    6.0  11.0   WSW   0.92  16.0   WSW    5.4    8.6    5.4  1002.2  0.00  0.00   0.034   0.000   24.3    38    9.0   23.7   7.34  .0725    116    1    100.0    5 
18/01/18  14:50    8.7    8.7    8.6    83    5.9  12.0   WSW   1.00  17.0     W    5.3    8.6    5.3  1002.5  0.00  0.00   0.034   0.000   24.2    38    9.0   23.7   7.34  .0725    117    1    100.0    5 
18/01/18  14:55    8.6    8.7    8.6    83    5.9  13.0   WSW   1.08  19.0   WSW    5.1    8.6    5.0  1002.6  0.00  0.00   0.034   0.000   24.2    37    8.6   23.6   7.24  .0725    116    1    100.0    5 
18/01/18  15:00    8.5    8.6    8.5    83    5.8  11.0   WSW   0.92  20.0     W    5.4    8.4    5.3  1002.5  0.00  0.00   0.034   0.000   24.2    37    8.6   23.6   7.24  .0726    117    1    100.0    5 
18/01/18  15:05    7.8    8.5    7.8    82    4.9  19.0   WSW   1.58  26.0    SW    3.1    7.7    3.0  1002.4  0.00  0.00   0.037   0.000   24.2    37    8.6   23.6   7.24  .0725    117    1    100.0    5 
18/01/18  15:10    7.3    7.7    7.3    84    4.8  15.0   WSW   1.25  22.0   WSW    3.2    7.3    3.1  1002.3  0.00  0.00   0.038   0.000   24.2    37    8.6   23.6   7.24  .0725    117    1    100.0    5 
18/01/18  15:15    7.1    7.3    7.1    85    4.7  12.0   WSW   1.00  18.0   WSW    3.4    7.0    3.4  1002.3  0.00  0.00   0.039   0.000   24.1    38    8.9   23.6   7.34  .0725    117    1    100.0    5 
18/01/18  15:20    7.0    7.1    7.0    85    4.6  11.0   WSW   0.92  15.0   WSW    3.6    6.9    3.6  1002.4  0.00  0.00   0.039   0.000   24.1    38    8.9   23.6   7.34  .0725    115    1    100.0    5 
18/01/18  15:25    7.0    7.0    7.0    84    4.5  14.0   WSW   1.17  23.0     W    3.0    6.9    2.9  1002.5  0.00  0.00   0.039   0.000   24.1    38    8.9   23.5   7.34  .0726    116    1    100.0    5 
18/01/18  15:30    7.1    7.1    7.0    83    4.4  14.0     W   1.17  21.0     W    3.1    7.0    3.0  1002.5  0.00  0.00   0.039   0.000   24.1    38    8.9   23.5   7.34  .0726    117    1    100.0    5 
18/01/18  15:35    7.2    7.2    7.1    83    4.5  11.0   WSW   0.92  19.0     W    3.8    7.1    3.8  1002.5  0.00  0.00   0.039   0.000   24.1    38    8.9   23.5   7.34  .0726    117    1    100.0    5 
18/01/18  15:40    7.2    7.2    7.2    84    4.6  12.0   WSW   1.00  19.0   WSW    3.6    7.1    3.6  1002.5  0.00  0.00   0.039   0.000   24.1    38    8.9   23.5   7.34  .0726    117    1    100.0    5 
18/01/18  15:45    7.2    7.2    7.1    84    4.6  11.0   WSW   0.92  18.0   WSW    3.8    7.1    3.8  1002.4  0.00  0.00   0.039   0.000   24.0    38    8.8   23.4   7.35  .0726    117    1    100.0    5 
18/01/18  15:50    7.1    7.2    7.1    84    4.6  11.0   WSW   0.92  16.0     W    3.8    7.1    3.7  1002.4  0.00  0.00   0.039   0.000   24.0    38    8.8   23.4   7.35  .0726    116    1    100.0    5 
18/01/18  15:55    6.9    7.1    6.9    84    4.4  12.0   WSW   1.00  18.0   WSW    3.3    6.9    3.3  1002.4  0.00  0.00   0.040   0.000   24.0    38    8.8   23.4   7.35  .0726    116    1    100.0    5 
18/01/18  16:00    6.9    6.9    6.9    85    4.5  11.0   WSW   0.92  19.0     W    3.5    6.8    3.4  1002.3  0.00  0.00   0.040   0.000   24.0    38    8.8   23.4   7.35  .0726    117    1    100.0    5 
18/01/18  16:05    6.9    6.9    6.9    85    4.5  11.0     W   0.92  17.0   WSW    3.5    6.8    3.4  1002.5  0.00  0.00   0.040   0.000   23.9    38    8.8   23.4   7.35  .0726    115    1    100.0    5 
18/01/18  16:10    6.8    6.9    6.8    85    4.4  10.0     W   0.83  19.0   WSW    3.6    6.7    3.6  1002.6  0.00  0.00   0.040   0.000   23.9    38    8.8   23.4   7.35  .0726    117    1    100.0    5 
18/01/18  16:15    6.8    6.8    6.8    85    4.4  10.0   WSW   0.83  18.0     W    3.6    6.7    3.6  1002.7  0.00  0.00   0.040   0.000   23.9    38    8.8   23.4   7.35  .0726    117    1    100.0    5 
18/01/18  16:20    6.8    6.8    6.8    85    4.4  11.0     W   0.92  19.0   WSW    3.3    6.7    3.3  1002.6  0.00  0.00   0.040   0.000   23.9    38    8.7   23.3   7.35  .0726    117    1    100.0    5 
18/01/18  16:25    6.7    6.8    6.7    85    4.4  10.0     W   0.83  17.0   WSW    3.6    6.7    3.5  1002.6  0.00  0.00   0.040   0.000   23.9    38    8.7   23.3   7.35  .0726    117    1    100.0    5 
18/01/18  16:30    6.7    6.7    6.7    85    4.4  10.0     W   0.83  16.0   WSW    3.6    6.7    3.5  1002.7  0.00  0.00   0.040   0.000   23.8    38    8.7   23.3   7.35  .0726    117    1    100.0    5 
18/01/18  16:35    6.7    6.7    6.7    85    4.3  11.0     W   0.92  17.0     W    3.2    6.6    3.2  1002.8  0.00  0.00   0.041   0.000   23.8    38    8.7   23.3   7.35  .0727    115    1    100.0    5 
18/01/18  16:40    6.7    6.7    6.7    86    4.5  10.0     W   0.83  15.0   WSW    3.5    6.6    3.4  1002.8  0.00  0.00   0.041   0.000   23.8    38    8.7   23.3   7.35  .0727    117    1    100.0    5 
18/01/18  16:45    6.6    6.7    6.6    86    4.4   9.0     W   0.75  15.0   WSW    3.7    6.6    3.7  1002.9  0.00  0.00   0.041   0.000   23.8    38    8.7   23.3   7.35  .0727    118    1    100.0    5 
18/01/18  16:50    6.6    6.6    6.6    86    4.4   9.0     W   0.75  15.0     W    3.7    6.5    3.6  1002.9  0.00  0.00   0.041   0.000   23.8    38    8.6   23.2   7.36  .0727    117    1    100.0    5 
18/01/18  16:55    6.5    6.6    6.5    87    4.5   8.0     W   0.67  14.0   WSW    3.9    6.5    3.9  1003.0  0.00  0.00   0.041   0.000   23.8    38    8.6   23.2   7.36  .0727    115    1    100.0    5 
18/01/18  17:00    6.4    6.5    6.4    87    4.4   7.0     W   0.58  12.0     W    4.2    6.4    4.2  1003.1  0.00  0.00   0.041   0.000   23.8    38    8.6   23.2   7.36  .0727    117    1    100.0    5 
18/01/18  17:05    6.4    6.5    6.4    87    4.4   7.0     W   0.58  12.0     W    4.2    6.4    4.2  1003.2  0.00  0.00   0.041   0.000   23.8    38    8.6   23.2   7.36  .0727    117    1    100.0    5 
18/01/18  17:10    6.4    6.4    6.4    87    4.4   8.0     W   0.67  14.0     W    3.8    6.4    3.8  1003.2  0.00  0.00   0.041   0.000   23.8    38    8.6   23.2   7.36  .0727    117    1    100.0    5 
18/01/18  17:15    6.3    6.4    6.3    87    4.3   7.0     W   0.58  12.0   WNW    4.1    6.3    4.1  1003.2  0.00  0.00   0.042   0.000   23.8    38    8.6   23.2   7.36  .0727    115    1    100.0    5 
18/01/18  17:20    6.3    6.4    6.3    87    4.3   7.0     W   0.58  12.0   WNW    4.1    6.3    4.1  1003.3  0.00  0.00   0.042   0.000   23.7    38    8.6   23.2   7.36  .0727    116    1    100.0    5 
18/01/18  17:25    6.3    6.3    6.3    87    4.3   6.0     W   0.50  12.0     W    4.3    6.3    4.3  1003.4  0.00  0.00   0.042   0.000   23.7    38    8.6   23.2   7.36  .0727    115    1    100.0    5 
18/01/18  17:30    6.3    6.3    6.3    87    4.3   6.0   WNW   0.50  11.0     W    4.3    6.3    4.3  1003.4  0.00  0.00   0.042   0.000   23.7    38    8.6   23.2   7.36  .0727    117    1    100.0    5 
18/01/18  17:35    6.3    6.3    6.3    87    4.3   6.0     W   0.50  10.0     W    4.3    6.3    4.3  1003.5  0.00  0.00   0.042   0.000   23.7    38    8.6   23.2   7.36  .0727    116    1    100.0    5 
18/01/18  17:40    6.3    6.3    6.2    87    4.3   6.0     W   0.50  10.0   WSW    4.3    6.3    4.3  1003.4  0.00  0.00   0.042   0.000   23.7    38    8.6   23.2   7.36  .0727    116    1    100.0    5 
18/01/18  17:45    6.3    6.3    6.3    87    4.3   6.0     W   0.50  11.0     W    4.3    6.3    4.3  1003.5  0.00  0.00   0.042   0.000   23.7    38    8.6   23.2   7.36  .0727    117    1    100.0    5 
18/01/18  17:50    6.2    6.3    6.2    88    4.4   7.0     W   0.58  13.0     W    3.9    6.2    3.9  1003.6  0.00  0.00   0.042   0.000   23.7    38    8.5   23.1   7.37  .0728    118    1    100.0    5 
18/01/18  17:55    6.2    6.3    6.2    88    4.4   6.0     W   0.50  12.0     W    4.2    6.2    4.2  1003.7  0.00  0.00   0.042   0.000   23.7    38    8.5   23.1   7.37  .0728    116    1    100.0    5 
18/01/18  18:00    6.2    6.2    6.2    87    4.2   8.0     W   0.67  13.0     W    3.5    6.1    3.4  1003.8  0.00  0.00   0.042   0.000   23.7    38    8.5   23.1   7.37  .0728    117    1    100.0    5 
18/01/18  18:05    6.1    6.2    6.1    87    4.1   8.0     W   0.67  15.0     W    3.4    6.1    3.4  1003.8  0.00  0.00   0.042   0.000   23.6    38    8.5   23.1   7.37  .0728    117    1    100.0    5 
18/01/18  18:10    6.1    6.1    6.1    87    4.1   9.0     W   0.75  13.0     W    3.1    6.1    3.1  1003.8  0.00  0.00   0.042   0.000   23.6    38    8.5   23.1   7.37  .0728    116    1    100.0    5 
18/01/18  18:15    6.1    6.1    6.1    87    4.1   8.0     W   0.67  17.0     W    3.4    6.0    3.3  1003.9  0.00  0.00   0.043   0.000   23.6    38    8.4   23.0   7.37  .0728    117    1    100.0    5 
18/01/18  18:20    6.0    6.1    6.0    86    3.8  10.0     W   0.83  15.0     W    2.7    5.9    2.7  1004.0  0.00  0.00   0.043   0.000   23.6    38    8.4   23.0   7.37  .0728    115    1    100.0    5 
18/01/18  18:25    6.1    6.1    6.0    85    3.7  10.0     W   0.83  16.0     W    2.8    6.0    2.7  1004.1  0.00  0.00   0.043   0.000   23.6    38    8.4   23.0   7.37  .0728    117    1    100.0    5 
18/01/18  18:30    6.1    6.1    6.1    85    3.7   9.0     W   0.75  15.0     W    3.1    6.0    3.0  1004.1  0.00  0.00   0.043   0.000   23.6    38    8.4   23.0   7.37  .0728    116    1    100.0    5 
18/01/18  18:35    6.1    6.1    6.1    85    3.7   9.0     W   0.75  14.0   WNW    3.1    6.0    3.0  1004.2  0.00  0.00   0.043   0.000   23.6    38    8.4   23.0   7.37  .0728    117    1    100.0    5 
18/01/18  18:40    6.0    6.1    6.0    85    3.7  10.0     W   0.83  19.0     W    2.7    5.9    2.7  1004.2  0.00  0.00   0.043   0.000   23.6    38    8.4   23.0   7.37  .0728    117    1    100.0    5 
18/01/18  18:45    5.9    6.0    5.9    84    3.4  10.0     W   0.83  18.0     W    2.7    5.8    2.6  1004.2  0.00  0.00   0.043   0.000   23.6    38    8.4   23.0   7.37  .0728    116    1    100.0    5 
18/01/18  18:50    5.9    5.9    5.9    84    3.4   8.0     W   0.67  13.0     W    3.2    5.8    3.1  1004.2  0.00  0.00   0.043   0.000   23.5    38    8.4   22.9   7.38  .0728    117    1    100.0    5 
18/01/18  18:55    5.8    5.9    5.8    84    3.3   8.0     W   0.67  14.0     W    3.1    5.7    3.0  1004.2  0.00  0.00   0.043   0.000   23.5    38    8.4   22.9   7.38  .0728    118    1    100.0    5 
18/01/18  19:00    5.8    5.8    5.8    83    3.1   7.0     W   0.58  13.0     W    3.3    5.7    3.2  1004.3  0.00  0.00   0.044   0.000   23.5    38    8.4   22.9   7.38  .0729    116    1    100.0    5 
18/01/18  19:05    5.7    5.8    5.7    83    3.1   8.0     W   0.67  14.0     W    3.0    5.6    2.9  1004.4  0.00  0.00   0.044   0.000   23.5    38    8.4   22.9   7.38  .0729    117    1    100.0    5 
18/01/18  19:10    5.7    5.7    5.7    83    3.0   9.0   WNW   0.75  15.0     W    2.6    5.6    2.5  1004.4  0.00  0.00   0.044   0.000   23.5    38    8.4   22.9   7.38  .0729    116    1    100.0    5 
18/01/18  19:15    5.7    5.7    5.6    83    3.0   7.0     W   0.58  13.0     W    3.2    5.6    3.1  1004.5  0.00  0.00   0.044   0.000   23.5    38    8.4   22.9   7.38  .0729    114    1    100.0    5 
18/01/18  19:20    5.6    5.6    5.6    83    2.9   8.0   WNW   0.67  15.0     W    2.8    5.4    2.7  1004.5  0.00  0.00   0.044   0.000   23.4    38    8.3   22.9   7.38  .0729    116    1    100.0    5 
18/01/18  19:25    5.5    5.6    5.5    83    2.8   7.0   WNW   0.58  11.0   WNW    3.0    5.4    2.9  1004.6  0.00  0.00   0.045   0.000   23.4    38    8.3   22.9   7.38  .0729    116    1    100.0    5 
18/01/18  19:30    5.4    5.5    5.4    83    2.7   7.0   WNW   0.58  14.0   WNW    2.8    5.3    2.7  1004.7  0.00  0.00   0.045   0.000   23.4    38    8.3   22.9   7.38  .0729    116    1    100.0    5 
18/01/18  19:35    5.3    5.4    5.3    83    2.7   8.0     W   0.67  13.0     W    2.5    5.2    2.4  1004.7  0.00  0.00   0.045   0.000   23.4    38    8.3   22.8   7.39  .0729    117    1    100.0    5 
18/01/18  19:40    5.3    5.3    5.3    83    2.6   7.0     W   0.58  13.0     W    2.7    5.2    2.6  1004.8  0.00  0.00   0.045   0.000   23.4    38    8.3   22.8   7.39  .0729    117    1    100.0    5 
18/01/18  19:45    5.2    5.3    5.2    83    2.5   8.0     W   0.67  12.0   WNW    2.3    5.1    2.2  1004.8  0.00  0.00   0.046   0.000   23.3    38    8.2   22.7   7.39  .0729    116    1    100.0    5 
18/01/18  19:50    5.2    5.2    5.2    83    2.5   8.0     W   0.67  15.0     W    2.3    5.1    2.2  1004.9  0.00  0.00   0.046   0.000   23.3    38    8.2   22.7   7.39  .0730    117    1    100.0    5 
18/01/18  19:55    5.1    5.2    5.1    83    2.4   8.0     W   0.67  13.0   WSW    2.2    4.9    2.1  1004.9  0.00  0.00   0.046   0.000   23.3    38    8.2   22.7   7.39  .0730    117    1    100.0    5 
18/01/18  20:00    5.1    5.1    5.1    83    2.4   8.0     W   0.67  13.0     W    2.2    4.9    2.1  1005.0  0.00  0.00   0.046   0.000   23.3    38    8.2   22.7   7.39  .0730    118    1    100.0    5 
18/01/18  20:05    5.1    5.1    5.0    83    2.4   9.0     W   0.75  16.0   WNW    1.9    4.9    1.8  1005.1  0.00  0.00   0.046   0.000   23.3    38    8.2   22.7   7.39  .0730    117    1    100.0    5 
18/01/18  20:10    5.0    5.1    5.0    83    2.4   7.0     W   0.58  12.0     W    2.4    4.9    2.3  1005.2  0.00  0.00   0.046   0.000   23.3    38    8.2   22.7   7.39  .0730    116    1    100.0    5 
18/01/18  20:15    4.9    5.0    4.9    83    2.3   7.0     W   0.58  12.0     W    2.3    4.8    2.2  1005.2  0.00  0.00   0.046   0.000   23.3    38    8.2   22.7   7.39  .0730    116    1    100.0    5 
18/01/18  20:20    4.9    4.9    4.9    83    2.3   7.0     W   0.58  14.0     W    2.3    4.8    2.2  1005.3  0.00  0.00   0.046   0.000   23.3    38    8.2   22.7   7.39  .0730    116    1    100.0    5 
18/01/18  20:25    4.9    4.9    4.9    83    2.3   8.0     W   0.67  13.0     W    2.1    4.8    1.9  1005.4  0.00  0.00   0.046   0.000   23.3    38    8.2   22.7   7.39  .0730    116    1    100.0    5 
18/01/18  20:30    4.9    4.9    4.9    83    2.2   7.0     W   0.58  12.0     W    2.3    4.8    2.2  1005.5  0.00  0.00   0.047   0.000   23.3    38    8.2   22.7   7.39  .0730    117    1    100.0    5 
18/01/18  20:35    4.8    4.9    4.8    83    2.2   7.0     W   0.58  14.0     W    2.2    4.7    2.1  1005.7  0.00  0.00   0.047   0.000   23.3    38    8.2   22.7   7.39  .0730    117    1    100.0    5 
18/01/18  20:40    4.8    4.8    4.8    83    2.2   8.0     W   0.67  14.0   WNW    1.9    4.7    1.8  1005.7  0.00  0.00   0.047   0.000   23.3    38    8.2   22.7   7.39  .0730    117    1    100.0    5 
18/01/18  20:45    4.8    4.8    4.8    84    2.3   5.0     W   0.42   9.0     W    2.9    4.7    2.8  1005.8  0.00  0.00   0.047   0.000   23.3    38    8.2   22.7   7.39  .0730    116    1    100.0    5 
18/01/18  20:50    4.7    4.8    4.7    84    2.2   4.0     W   0.33   7.0     W    3.3    4.6    3.2  1005.9  0.00  0.00   0.047   0.000   23.3    38    8.2   22.7   7.39  .0730    116    1    100.0    5 
18/01/18  20:55    4.6    4.7    4.6    84    2.1   5.0     W   0.42  10.0     W    2.7    4.5    2.6  1006.0  0.00  0.00   0.048   0.000   23.2    38    8.1   22.6   7.40  .0731    116    1    100.0    5 
18/01/18  21:00    4.6    4.7    4.6    84    2.1   6.0     W   0.50  12.0     W    2.2    4.4    2.1  1006.0  0.00  0.00   0.048   0.000   23.2    38    8.1   22.6   7.40  .0731    116    1    100.0    5 
18/01/18  21:05    4.5    4.6    4.5    84    2.0   4.0     W   0.33   8.0     W    3.0    4.4    2.9  1006.1  0.00  0.00   0.048   0.000   23.2    38    8.1   22.6   7.40  .0731    116    1    100.0    5 
18/01/18  21:10    4.5    4.5    4.4    84    2.0   5.0     W   0.42   9.0     W    2.6    4.4    2.4  1006.2  0.00  0.00   0.048   0.000   23.2    38    8.1   22.6   7.40  .0731    117    1    100.0    5 
18/01/18  21:15    4.4    4.5    4.4    84    2.0   5.0     W   0.42   8.0     W    2.5    4.3    2.4  1006.2  0.00  0.00   0.048   0.000   23.2    37    7.7   22.6   7.27  .0731    117    1    100.0    5 
18/01/18  21:20    4.3    4.4    4.3    84    1.9   6.0     W   0.50  11.0     W    1.9    4.2    1.8  1006.3  0.00  0.00   0.049   0.000   23.2    37    7.7   22.6   7.27  .0731    116    1    100.0    5 
18/01/18  21:25    4.3    4.4    4.3    84    1.9   6.0     W   0.50   9.0     W    1.9    4.2    1.8  1006.2  0.00  0.00   0.049   0.000   23.2    38    8.1   22.5   7.40  .0731    114    1    100.0    5 
18/01/18  21:30    4.3    4.3    4.3    84    1.8   6.0     W   0.50  10.0     W    1.9    4.2    1.8  1006.2  0.00  0.00   0.049   0.000   23.2    37    7.7   22.4   7.28  .0731    117    1    100.0    5 
18/01/18  21:35    4.3    4.3    4.3    83    1.6   6.0     W   0.50  13.0     W    1.9    4.2    1.8  1006.2  0.00  0.00   0.049   0.000   23.2    37    7.7   22.4   7.28  .0731    116    1    100.0    5 
18/01/18  21:40    4.3    4.3    4.2    83    1.6   7.0     W   0.58  13.0     W    1.6    4.2    1.4  1006.3  0.00  0.00   0.049   0.000   23.2    37    7.7   22.4   7.28  .0731    117    1    100.0    5 
18/01/18  21:45    4.3    4.3    4.3    83    1.6   8.0     W   0.67  14.0   WSW    1.2    4.2    1.1  1006.3  0.00  0.00   0.049   0.000   23.2    37    7.7   22.4   7.28  .0731    115    1    100.0    5 
18/01/18  21:50    4.3    4.3    4.3    82    1.5   8.0     W   0.67  12.0     W    1.3    4.2    1.1  1006.4  0.00  0.00   0.049   0.000   23.2    38    8.1   22.5   7.40  .0731    117    1    100.0    5 
18/01/18  21:55    4.3    4.3    4.3    82    1.5   7.0     W   0.58  11.0     W    1.6    4.2    1.4  1006.5  0.00  0.00   0.049   0.000   23.1    37    7.6   22.4   7.28  .0732    116    1    100.0    5 
18/01/18  22:00    4.3    4.3    4.3    82    1.5   6.0     W   0.50  10.0   WSW    1.9    4.2    1.8  1006.4  0.00  0.00   0.049   0.000   23.1    38    8.0   22.4   7.41  .0731    116    1    100.0    5 
18/01/18  22:05    4.3    4.3    4.3    82    1.5   6.0     W   0.50  12.0     W    1.9    4.1    1.7  1006.5  0.00  0.00   0.049   0.000   23.1    38    8.0   22.4   7.41  .0731    115    1    100.0    5 
18/01/18  22:10    4.3    4.3    4.3    82    1.5   7.0     W   0.58  12.0     W    1.6    4.1    1.4  1006.5  0.00  0.00   0.049   0.000   23.1    37    7.6   22.4   7.28  .0732    118    1    100.0    5 
18/01/18  22:15    4.3    4.3    4.3    82    1.5   5.0     W   0.42  10.0   WNW    2.3    4.1    2.1  1006.6  0.00  0.00   0.049   0.000   23.1    38    8.0   22.4   7.41  .0731    115    1    100.0    5 
18/01/18  22:20    4.2    4.3    4.2    82    1.4   4.0     W   0.33   7.0     W    2.6    4.0    2.4  1006.6  0.00  0.00   0.049   0.000   23.1    37    7.6   22.4   7.28  .0732    116    1    100.0    5 
18/01/18  22:25    4.1    4.2    4.1    82    1.3   5.0     W   0.42   9.0     W    2.1    3.9    1.9  1006.7  0.00  0.00   0.049   0.000   23.1    37    7.6   22.4   7.28  .0732    114    1    100.0    5 
18/01/18  22:30    4.1    4.1    4.1    82    1.3   4.0     W   0.33   8.0     W    2.6    3.9    2.4  1006.8  0.00  0.00   0.049   0.000   23.1    38    8.0   22.3   7.41  .0732    116    1    100.0    5 
18/01/18  22:35    4.0    4.1    4.0    82    1.2   4.0     W   0.33   8.0     W    2.4    3.8    2.3  1006.9  0.00  0.00   0.050   0.000   23.1    38    8.0   22.4   7.41  .0732    117    1    100.0    5 
18/01/18  22:40    3.9    4.0    3.9    82    1.1   4.0   WNW   0.33   7.0   WNW    2.4    3.8    2.2  1006.9  0.00  0.00   0.050   0.000   23.1    38    8.0   22.3   7.41  .0732    117    1    100.0    5 
18/01/18  22:45    3.9    3.9    3.9    83    1.3   3.0   WNW   0.25   7.0   WNW    2.9    3.8    2.8  1007.0  0.00  0.00   0.050   0.000   23.1    38    8.0   22.4   7.41  .0732    117    1    100.0    5 
18/01/18  22:50    3.8    3.9    3.8    83    1.2   3.0   WNW   0.25   6.0   WNW    2.8    3.7    2.7  1007.0  0.00  0.00   0.050   0.000   23.1    38    8.0   22.3   7.41  .0732    117    1    100.0    5 
18/01/18  22:55    3.8    3.8    3.8    83    1.2   5.0     W   0.42   9.0     W    1.7    3.7    1.6  1006.9  0.00  0.00   0.051   0.000   23.1    38    8.0   22.3   7.41  .0732    116    1    100.0    5 
18/01/18  23:00    3.8    3.8    3.8    84    1.3   5.0     W   0.42   9.0     W    1.7    3.7    1.6  1007.0  0.00  0.00   0.051   0.000   23.1    37    7.6   22.3   7.28  .0732    116    1    100.0    5 
18/01/18  23:05    3.7    3.7    3.7    84    1.3   5.0     W   0.42   8.0     W    1.6    3.6    1.5  1007.1  0.00  0.00   0.051   0.000   23.1    38    8.0   22.3   7.41  .0732    117    1    100.0    5 
18/01/18  23:10    3.7    3.7    3.7    84    1.2   5.0     W   0.42   8.0     W    1.6    3.6    1.4  1007.1  0.00  0.00   0.051   0.000   23.1    37    7.6   22.4   7.28  .0732    118    1    100.0    5 
18/01/18  23:15    3.7    3.7    3.7    85    1.4   5.0   WNW   0.42   9.0     W    1.6    3.6    1.4  1007.1  0.00  0.00   0.051   0.000   23.1    37    7.6   22.4   7.28  .0732    115    1    100.0    5 
18/01/18  23:20    3.7    3.7    3.7    85    1.4   4.0     W   0.33   7.0     W    2.1    3.6    1.9  1007.1  0.00  0.00   0.051   0.000   23.1    37    7.6   22.4   7.28  .0732    117    1    100.0    5 
18/01/18  23:25    3.6    3.7    3.6    85    1.3   5.0     W   0.42   8.0     W    1.5    3.5    1.4  1007.3  0.00  0.00   0.051   0.000   23.2    37    7.7   22.4   7.28  .0732    117    1    100.0    5 
18/01/18  23:30    3.6    3.6    3.6    85    1.3   6.0     W   0.50   9.0     W    1.1    3.5    1.0  1007.3  0.00  0.00   0.051   0.000   23.2    38    8.1   22.5   7.40  .0732    116    1    100.0    5 
18/01/18  23:35    3.6    3.6    3.6    85    1.3   6.0     W   0.50  10.0     W    1.1    3.5    1.0  1007.2  0.00  0.00   0.051   0.000   23.2    38    8.1   22.5   7.40  .0732    116    1    100.0    5 
18/01/18  23:40    3.6    3.6    3.6    86    1.5   7.0     W   0.58  11.0     W    0.7    3.5    0.6  1007.3  0.00  0.00   0.051   0.000   23.2    38    8.1   22.5   7.40  .0732    117    1    100.0    5 
18/01/18  23:45    3.6    3.6    3.6    85    1.3   5.0     W   0.42  10.0   WSW    1.5    3.5    1.4  1007.4  0.00  0.00   0.051   0.000   23.2    38    8.1   22.5   7.40  .0732    117    1    100.0    5 
18/01/18  23:50    3.6    3.6    3.6    86    1.4   5.0     W   0.42   9.0     W    1.4    3.4    1.3  1007.4  0.00  0.00   0.051   0.000   23.1    38    8.0   22.4   7.41  .0732    117    1    100.0    5 
18/01/18  23:55    3.6    3.6    3.6    86    1.4   5.0     W   0.42  10.0     W    1.4    3.4    1.3  1007.5  0.00  0.00   0.051   0.000   23.2    38    8.1   22.5   7.40  .0732    117    1    100.0    5 
19/01/18  00:00    3.5    3.6    3.5    86    1.4   6.0     W   0.50   9.0     W    0.9    3.4    0.8  1007.5  0.00  0.00   0.052   0.000   23.1    38    8.0   22.4   7.41  .0732    117    1    100.0    5 
19/01/18   0:05    3.4    3.5    3.4    86    1.3   7.0     W   0.58  11.0     W    0.6    3.3    0.4  1007.5  0.00  0.00   0.052   0.000   23.1    38    8.0   22.4   7.41  .0732    115    1    100.0    5 
19/01/18   0:10    3.4    3.4    3.4    86    1.3   7.0     W   0.58  11.0     W    0.6    3.3    0.4  1007.6  0.00  0.00   0.052   0.000   23.1    38    8.0   22.4   7.41  .0732    117    1    100.0    5 
19/01/18   0:15    3.4    3.4    3.4    87    1.5   6.0     W   0.50  10.0     W    0.9    3.3    0.8  1007.6  0.00  0.00   0.052   0.000   23.1    38    8.0   22.4   7.41  .0732    116    1    100.0    5 
19/01/18   0:20    3.4    3.4    3.4    86    1.3   5.0     W   0.42   8.0     W    1.2    3.3    1.1  1007.6  0.00  0.00   0.052   0.000   23.1    38    8.0   22.4   7.41  .0732    116    1    100.0    5 
19/01/18   0:25    3.4    3.4    3.4    87    1.4   6.0     W   0.50  10.0     W    0.8    3.3    0.7  1007.6  0.00  0.00   0.052   0.000   23.1    38    8.0   22.4   7.41  .0732    116    1    100.0    5 
19/01/18   0:30    3.3    3.4    3.3    87    1.4   4.0     W   0.33   7.0   WSW    1.7    3.2    1.6  1007.6  0.00  0.00   0.052   0.000   23.1    38    8.0   22.4   7.41  .0732    117    1    100.0    5 
19/01/18   0:35    3.3    3.3    3.3    87    1.3   5.0     W   0.42   8.0     W    1.1    3.2    1.0  1007.6  0.00  0.00   0.052   0.000   23.1    38    8.0   22.4   7.41  .0732    117    1    100.0    5 
19/01/18   0:40    3.3    3.3    3.3    87    1.3   4.0     W   0.33   7.0     W    1.6    3.2    1.5  1007.7  0.00  0.00   0.052   0.000   23.1    38    8.0   22.3   7.41  .0732    118    1    100.0    5 
19/01/18   0:45    3.2    3.3    3.2    87    1.3   3.0     W   0.25   5.0     W    2.2    3.1    2.1  1007.7  0.00  0.00   0.052   0.000   23.1    38    8.0   22.4   7.41  .0732    116    1    100.0    5 
19/01/18   0:50    3.1    3.2    3.1    87    1.2   3.0     W   0.25   6.0     W    2.1    3.0    1.9  1007.6  0.00  0.00   0.053   0.000   23.1    38    8.0   22.4   7.41  .0732    117    1    100.0    5 
19/01/18   0:55    3.1    3.1    3.1    87    1.1   4.0     W   0.33   8.0     W    1.3    2.9    1.2  1007.6  0.00  0.00   0.053   0.000   23.2    38    8.1   22.5   7.40  .0732    117    1    100.0    5 
19/01/18   1:00    3.1    3.1    3.1    87    1.1   6.0     W   0.50   9.0     W    0.4    2.9    0.3  1007.6  0.00  0.00   0.053   0.000   23.2    38    8.1   22.5   7.40  .0732    116    1    100.0    5 
19/01/18   1:05    3.1    3.1    3.1    87    1.2   6.0     W   0.50  10.0     W    0.5    3.0    0.4  1007.7  0.00  0.00   0.053   0.000   23.2    38    8.1   22.5   7.40  .0732    117    1    100.0    5 
19/01/18   1:10    3.1    3.1    3.1    87    1.2   6.0     W   0.50   9.0     W    0.5    3.0    0.4  1007.7  0.00  0.00   0.053   0.000   23.2    38    8.1   22.6   7.40  .0732    115    1    100.0    5 
19/01/18   1:15    3.1    3.1    3.1    87    1.1   5.0     W   0.42   9.0     W    0.8    2.9    0.7  1007.7  0.00  0.00   0.053   0.000   23.2    38    8.1   22.6   7.40  .0732    117    1    100.0    5 
19/01/18   1:20    3.1    3.1    3.1    87    1.1   6.0     W   0.50  10.0     W    0.4    2.9    0.3  1007.7  0.00  0.00   0.053   0.000   23.2    38    8.1   22.5   7.40  .0732    117    1    100.0    5 
19/01/18   1:25    3.1    3.1    3.1    87    1.1   6.0     W   0.50  10.0     W    0.4    2.9    0.3  1007.7  0.00  0.00   0.053   0.000   23.2    38    8.1   22.6   7.40  .0732    116    1    100.0    5 
19/01/18   1:30    3.1    3.1    3.1    87    1.1   6.0     W   0.50   9.0     W    0.4    2.9    0.3  1007.8  0.00  0.00   0.053   0.000   23.2    38    8.1   22.5   7.40  .0732    116    1    100.0    5 
19/01/18   1:35    3.1    3.1    3.1    87    1.1   6.0     W   0.50  11.0     W    0.4    2.9    0.3  1007.9  0.00  0.00   0.053   0.000   23.2    38    8.1   22.5   7.40  .0732    117    1    100.0    5 
19/01/18   1:40    3.1    3.1    3.1    87    1.1   7.0     W   0.58  12.0     W    0.1    2.9   -0.1  1008.0  0.00  0.00   0.053   0.000   23.2    38    8.1   22.5   7.40  .0732    117    1    100.0    5 
19/01/18   1:45    3.1    3.1    3.1    87    1.1   7.0     W   0.58  12.0     W    0.1    2.9   -0.1  1008.0  0.00  0.00   0.053   0.000   23.2    38    8.1   22.5   7.40  .0732    115    1    100.0    5 
19/01/18   1:50    3.1    3.1    3.1    87    1.1   6.0     W   0.50   9.0   WNW    0.4    2.9    0.3  1008.0  0.00  0.00   0.053   0.000   23.1    38    8.0   22.4   7.41  .0732    117    1    100.0    5 
19/01/18   1:55    3.0    3.1    3.0    87    1.0   6.0     W   0.50   9.0   WNW    0.4    2.9    0.3  1007.9  0.00  0.00   0.053   0.000   23.1    38    8.0   22.4   7.41  .0732    117    1    100.0    5 
19/01/18   2:00    2.9    3.0    2.9    87    1.0   6.0     W   0.50   9.0     W    0.3    2.8    0.2  1008.0  0.00  0.00   0.053   0.000   23.1    38    8.0   22.4   7.41  .0732    116    1    100.0    5 
19/01/18   2:05    2.9    2.9    2.9    88    1.1   5.0     W   0.42   9.0     W    0.7    2.8    0.6  1008.1  0.00  0.00   0.054   0.000   23.1    38    8.0   22.3   7.41  .0733    117    1    100.0    5 
19/01/18   2:10    2.8    2.9    2.8    88    1.0   5.0   WNW   0.42   9.0   WNW    0.6    2.8    0.6  1008.0  0.00  0.00   0.054   0.000   23.1    38    8.0   22.3   7.41  .0733    117    1    100.0    5 
19/01/18   2:15    2.8    2.8    2.7    87    0.8   5.0   WNW   0.42   8.0   WNW    0.5    2.7    0.4  1008.0  0.00  0.00   0.054   0.000   23.1    38    8.0   22.3   7.41  .0733    115    1    100.0    5 
19/01/18   2:20    2.6    2.7    2.6    87    0.7   5.0    NW   0.42   7.0    NW    0.3    2.5    0.2  1008.0  0.00  0.00   0.055   0.000   23.1    38    8.0   22.4   7.41  .0732    117    1    100.0    5 
19/01/18   2:25    2.6    2.6    2.6    88    0.8   5.0   WNW   0.42   7.0   WNW    0.3    2.5    0.2  1008.2  0.00  0.00   0.055   0.000   23.1    38    8.0   22.4   7.41  .0733    117    1    100.0    5 
19/01/18   2:30    2.5    2.6    2.5    88    0.7   5.0   WNW   0.42   9.0   WNW    0.2    2.4    0.2  1008.1  0.00  0.00   0.055   0.000   23.2    38    8.1   22.5   7.40  .0732    115    1    100.0    5 
19/01/18   2:35    2.5    2.5    2.4    88    0.7   6.0     W   0.50   9.0     W   -0.2    2.4   -0.3  1008.1  0.00  0.00   0.055   0.000   23.2    38    8.1   22.5   7.40  .0732    116    1    100.0    5 
19/01/18   2:40    2.6    2.6    2.5    88    0.8   6.0     W   0.50   9.0     W   -0.2    2.5   -0.2  1008.2  0.00  0.00   0.055   0.000   23.2    38    8.1   22.5   7.40  .0732    117    1    100.0    5 
19/01/18   2:45    2.6    2.6    2.6    88    0.8   6.0     W   0.50  10.0     W   -0.1    2.6   -0.2  1008.2  0.00  0.00   0.055   0.000   23.2    38    8.1   22.5   7.40  .0732    117    1    100.0    5 
19/01/18   2:50    2.6    2.6    2.6    88    0.8   6.0   WNW   0.50   9.0   WNW   -0.1    2.6   -0.2  1008.1  0.00  0.00   0.055   0.000   23.2    38    8.1   22.5   7.40  .0732    118    1    100.0    5 
19/01/18   2:55    2.6    2.6    2.6    88    0.8   5.0   WNW   0.42   8.0   WNW    0.3    2.6    0.3  1008.1  0.00  0.00   0.055   0.000   23.2    38    8.1   22.5   7.40  .0732    116    1    100.0    5 
19/01/18   3:00    2.6    2.6    2.6    88    0.8   5.0   WNW   0.42   8.0   WNW    0.3    2.5    0.2  1008.2  0.00  0.00   0.055   0.000   23.2    38    8.1   22.5   7.40  .0732    116    1    100.0    5 
19/01/18   3:05    2.6    2.6    2.6    88    0.8   5.0   WNW   0.42   8.0   WNW    0.3    2.5    0.2  1008.1  0.00  0.00   0.055   0.000   23.2    38    8.1   22.5   7.40  .0732    116    1    100.0    5 
19/01/18   3:10    2.6    2.6    2.5    88    0.8   5.0   WNW   0.42   8.0   WNW    0.3    2.5    0.2  1008.2  0.00  0.00   0.055   0.000   23.1    38    8.0   22.4   7.41  .0733    117    1    100.0    5 
19/01/18   3:15    2.6    2.6    2.5    88    0.8   4.0   WNW   0.33   7.0   WNW    0.8    2.5    0.7  1008.2  0.00  0.00   0.055   0.000   23.1    38    8.0   22.4   7.41  .0733    116    1    100.0    5 
19/01/18   3:20    2.5    2.6    2.5    88    0.7   5.0     W   0.42   9.0     W    0.2    2.4    0.2  1008.0  0.00  0.00   0.055   0.000   23.1    38    8.0   22.4   7.41  .0732    117    1    100.0    5 
19/01/18   3:25    2.6    2.6    2.5    88    0.8   5.0     W   0.42   9.0     W    0.3    2.5    0.2  1008.1  0.00  0.00   0.055   0.000   23.1    38    8.0   22.4   7.41  .0733    117    1    100.0    5 
19/01/18   3:30    2.6    2.6    2.5    88    0.8   6.0     W   0.50   8.0     W   -0.2    2.5   -0.2  1008.0  0.00  0.00   0.055   0.000   23.1    38    8.0   22.4   7.41  .0732    117    1    100.0    5 
19/01/18   3:35    2.5    2.6    2.5    88    0.7   5.0   WNW   0.42   8.0     W    0.2    2.4    0.2  1008.1  0.00  0.00   0.055   0.000   23.1    38    8.0   22.4   7.41  .0733    116    1    100.0    5 
19/01/18   3:40    2.5    2.6    2.5    88    0.7   4.0   WNW   0.33   7.0   WNW    0.7    2.4    0.7  1008.1  0.00  0.00   0.055   0.000   23.1    38    8.0   22.4   7.41  .0733    117    1    100.0    5 
19/01/18   3:45    2.4    2.5    2.4    88    0.7   4.0   WNW   0.33   7.0   WNW    0.7    2.4    0.6  1008.2  0.00  0.00   0.055   0.000   23.1    38    8.0   22.3   7.41  .0733    117    1    100.0    5 
19/01/18   3:50    2.4    2.4    2.4    88    0.6   4.0   WNW   0.33   7.0   WNW    0.6    2.3    0.5  1008.2  0.00  0.00   0.055   0.000   23.1    38    8.0   22.3   7.41  .0733    117    1    100.0    5 
19/01/18   3:55    2.3    2.4    2.3    88    0.5   4.0   WNW   0.33   7.0   WNW    0.5    2.3    0.4  1008.2  0.00  0.00   0.056   0.000   23.2    38    8.1   22.5   7.40  .0732    118    1    100.0    5 
19/01/18   4:00    2.3    2.3    2.3    88    0.5   3.0   WNW   0.25   5.0   WNW    1.1    2.2    1.1  1008.1  0.00  0.00   0.056   0.000   23.2    37    7.7   22.6   7.27  .0732    117    1    100.0    5 
19/01/18   4:05    2.2    2.3    2.2    88    0.4   4.0   WNW   0.33   7.0   WNW    0.4    2.2    0.3  1008.1  0.00  0.00   0.056   0.000   23.2    37    7.7   22.6   7.27  .0732    116    1    100.0    5 
19/01/18   4:10    2.2    2.2    2.2    88    0.4   3.0   WNW   0.25   6.0   WNW    1.0    2.2    0.9  1008.1  0.00  0.00   0.056   0.000   23.2    37    7.7   22.6   7.27  .0732    117    1    100.0    5 
19/01/18   4:15    2.2    2.2    2.2    88    0.4   4.0   WNW   0.33   6.0   WNW    0.4    2.2    0.3  1008.1  0.00  0.00   0.056   0.000   23.2    37    7.7   22.6   7.27  .0732    116    1    100.0    5 
19/01/18   4:20    2.2    2.2    2.2    88    0.4   4.0   WNW   0.33   6.0   WNW    0.3    2.1    0.3  1008.2  0.00  0.00   0.056   0.000   23.2    37    7.7   22.6   7.27  .0732    116    1    100.0    5 
19/01/18   4:25    2.1    2.2    2.1    88    0.3   4.0   WNW   0.33   6.0   WNW    0.3    2.1    0.2  1008.3  0.00  0.00   0.056   0.000   23.2    38    8.1   22.6   7.40  .0732    114    1    100.0    5 
19/01/18   4:30    2.1    2.1    2.1    88    0.3   3.0   WNW   0.25   6.0   WNW    0.8    2.0    0.8  1008.3  0.00  0.00   0.057   0.000   23.2    38    8.1   22.6   7.40  .0732    117    1    100.0    5 
19/01/18   4:35    2.1    2.1    2.1    88    0.3   4.0   WNW   0.33   7.0   WNW    0.2    2.0    0.2  1008.3  0.00  0.00   0.057   0.000   23.2    38    8.1   22.6   7.40  .0732    114    1    100.0    5 
19/01/18   4:40    2.1    2.1    2.1    89    0.5   5.0   WNW   0.42   7.0   WNW   -0.3    2.1   -0.3  1008.2  0.00  0.00   0.056   0.000   23.2    38    8.1   22.5   7.40  .0732    117    1    100.0    5 
19/01/18   4:45    2.2    2.2    2.1    89    0.5   4.0   WNW   0.33   7.0   WNW    0.3    2.1    0.3  1008.3  0.00  0.00   0.056   0.000   23.2    38    8.1   22.5   7.40  .0733    117    1    100.0    5 
19/01/18   4:50    2.2    2.2    2.2    89    0.6   4.0   WNW   0.33   7.0   WNW    0.4    2.2    0.3  1008.3  0.00  0.00   0.056   0.000   23.2    38    8.1   22.5   7.40  .0733    117    1    100.0    5 
19/01/18   4:55    2.2    2.2    2.2    89    0.6   4.0   WNW   0.33   8.0   WNW    0.4    2.2    0.3  1008.3  0.00  0.00   0.056   0.000   23.1    38    8.0   22.4   7.41  .0733    117    1    100.0    5 
19/01/18   5:00    2.2    2.2    2.2    88    0.4   3.0   WNW   0.25   6.0   WNW    0.9    2.1    0.9  1008.4  0.00  0.00   0.056   0.000   23.1    38    8.0   22.4   7.41  .0733    117    1    100.0    5 
19/01/18   5:05    2.1    2.2    2.1    88    0.3   2.0   WNW   0.17   4.0   WNW    1.7    2.1    1.7  1008.4  0.00  0.00   0.056   0.000   23.1    38    8.0   22.4   7.41  .0733    117    1    100.0    5 
19/01/18   5:10    2.1    2.1    2.1    88    0.3   1.0   WNW   0.08   5.0   WNW    2.1    2.0    2.0  1008.4  0.00  0.00   0.057   0.000   23.1    38    8.0   22.3   7.41  .0733    117    1    100.0    5 
19/01/18   5:15    2.0    2.1    2.0    88    0.2   1.0   WNW   0.08   3.0   WNW    2.0    1.9    1.9  1008.5  0.00  0.00   0.057   0.000   23.1    38    8.0   22.3   7.41  .0733    117    1    100.0    5 
19/01/18   5:20    1.9    2.0    1.9    88    0.2   1.0   WNW   0.08   4.0   WNW    1.9    1.9    1.9  1008.5  0.00  0.00   0.057   0.000   23.1    38    8.0   22.3   7.41  .0733    117    1    100.0    5 
19/01/18   5:25    1.8    1.9    1.8    88    0.1   0.0   WNW   0.00   1.0   WNW    1.8    1.8    1.8  1008.5  0.00  0.00   0.057   0.000   23.1    38    8.0   22.3   7.41  .0733    114    1    100.0    5 
19/01/18   5:30    1.7    1.8    1.7    88   -0.1   1.0   WNW   0.08   4.0   WNW    1.7    1.7    1.7  1008.6  0.00  0.00   0.058   0.000   23.1    38    8.0   22.4   7.41  .0733    115    1    100.0    5 
19/01/18   5:35    1.7    1.8    1.7    89    0.0   1.0   WNW   0.08   3.0   WNW    1.7    1.6    1.6  1008.5  0.00  0.00   0.058   0.000   23.1    38    8.0   22.4   7.41  .0733    117    1    100.0    5 
19/01/18   5:40    1.6    1.7    1.6    88   -0.2   2.0   WNW   0.17   6.0   WNW    1.2    1.6    1.2  1008.5  0.00  0.00   0.058   0.000   23.2    37    7.7   22.4   7.28  .0733    117    1    100.0    5 
19/01/18   5:45    1.6    1.7    1.6    89   -0.0   3.0   WNW   0.25   6.0   WNW    0.3    1.6    0.3  1008.5  0.00  0.00   0.058   0.000   23.2    37    7.7   22.4   7.28  .0733    117    1    100.0    5 
19/01/18   5:50    1.7    1.7    1.6    89    0.0   3.0   WNW   0.25   6.0   WNW    0.4    1.6    0.3  1008.6  0.00  0.00   0.058   0.000   23.2    37    7.7   22.4   7.28  .0733    116    1    100.0    5 
19/01/18   5:55    1.7    1.7    1.6    89    0.0   3.0   WNW   0.25   7.0   WNW    0.4    1.6    0.3  1008.6  0.00  0.00   0.058   0.000   23.2    37    7.7   22.4   7.28  .0733    117    1    100.0    5 
19/01/18   6:00    1.7    1.7    1.6    89    0.0   3.0   WNW   0.25   5.0   WNW    0.4    1.6    0.3  1008.6  0.00  0.00   0.058   0.000   23.1    37    7.6   22.4   7.28  .0733    117    1    100.0    5 
19/01/18   6:05    1.7    1.7    1.6    89    0.0   3.0   WNW   0.25   6.0   WNW    0.4    1.6    0.3  1008.7  0.00  0.00   0.058   0.000   23.1    38    8.0   22.4   7.41  .0733    118    1    100.0    5 
19/01/18   6:10    1.7    1.7    1.7    89    0.0   4.0   WNW   0.33   8.0   WNW   -0.3    1.6   -0.3  1008.6  0.00  0.00   0.058   0.000   23.2    38    8.1   22.5   7.40  .0733    116    1    100.0    5 
19/01/18   6:15    1.8    1.8    1.7    90    0.3   5.0   WNW   0.42  10.0   WNW   -0.7    1.7   -0.7  1008.7  0.00  0.00   0.057   0.000   23.2    38    8.1   22.5   7.40  .0733    117    1    100.0    5 
19/01/18   6:20    1.9    1.9    1.8    90    0.5   6.0   WNW   0.50  11.0   WNW   -0.9    1.9   -0.9  1008.6  0.00  0.00   0.057   0.000   23.2    38    8.1   22.6   7.40  .0733    117    1    100.0    5 
19/01/18   6:25    2.0    2.0    1.9    89    0.4   5.0   WNW   0.42  10.0   WNW   -0.4    1.9   -0.4  1008.6  0.00  0.00   0.057   0.000   23.2    38    8.1   22.6   7.40  .0733    116    1    100.0    5 
19/01/18   6:30    2.0    2.0    2.0    89    0.4   4.0   WNW   0.33   7.0   WNW    0.1    1.9    0.1  1008.6  0.00  0.00   0.057   0.000   23.2    38    8.1   22.6   7.40  .0733    117    1    100.0    5 
19/01/18   6:35    2.0    2.0    2.0    89    0.4   4.0   WNW   0.33   8.0   WNW    0.1    1.9    0.1  1008.7  0.00  0.00   0.057   0.000   23.2    38    8.1   22.6   7.40  .0733    117    1    100.0    5 
19/01/18   6:40    1.9    2.0    1.9    89    0.3   4.0    NW   0.33   8.0    NW    0.1    1.9    0.0  1008.7  0.00  0.00   0.057   0.000   23.2    38    8.1   22.6   7.40  .0733    117    1    100.0    5 
19/01/18   6:45    1.9    1.9    1.9    89    0.3   4.0    NW   0.33   7.0    NW    0.0    1.8   -0.1  1008.8  0.00  0.00   0.057   0.000   23.2    38    8.1   22.6   7.40  .0733    116    1    100.0    5 
19/01/18   6:50    1.8    1.9    1.8    89    0.2   4.0    NW   0.33   7.0    NW   -0.1    1.8   -0.1  1008.9  0.00  0.00   0.057   0.000   23.2    38    8.1   22.6   7.40  .0733    115    1    100.0    5 
19/01/18   6:55    1.8    1.8    1.8    89    0.2   4.0    NW   0.33   7.0    NW   -0.1    1.7   -0.2  1008.9  0.00  0.00   0.057   0.000   23.2    38    8.1   22.6   7.40  .0733    117    1    100.0    5 
19/01/18   7:00    1.8    1.9    1.8    89    0.2   5.0   WNW   0.42  10.0    NW   -0.6    1.8   -0.6  1008.8  0.00  0.00   0.057   0.000   23.3    38    8.2   22.7   7.39  .0733    117    1    100.0    5 
19/01/18   7:05    1.9    1.9    1.8    90    0.5   5.0   WNW   0.42   8.0   WNW   -0.4    1.9   -0.5  1008.8  0.00  0.00   0.057   0.000   23.3    38    8.2   22.7   7.39  .0732    116    1    100.0    5 
19/01/18   7:10    1.9    1.9    1.9    89    0.3   4.0    NW   0.33   8.0    NW    0.1    1.9    0.0  1008.8  0.00  0.00   0.057   0.000   23.3    38    8.2   22.7   7.39  .0732    118    1    100.0    5 
19/01/18   7:15    1.9    1.9    1.9    89    0.3   3.0     W   0.25   7.0     W    0.7    1.9    0.7  1008.8  0.00  0.00   0.057   0.000   23.4    37    7.9   22.8   7.27  .0732    117    1    100.0    5 
19/01/18   7:20    1.9    1.9    1.9    89    0.3   2.0   WNW   0.17   4.0   WNW    1.5    1.8    1.4  1008.7  0.00  0.00   0.057   0.000   23.4    38    8.3   22.9   7.38  .0732    117    1    100.0    5 
19/01/18   7:25    1.8    1.9    1.8    89    0.2   1.0   WNW   0.08   4.0   WNW    1.8    1.8    1.8  1008.7  0.00  0.00   0.057   0.000   23.4    38    8.3   22.9   7.38  .0732    117    1    100.0    5 
19/01/18   7:30    1.8    1.8    1.8    89    0.2   0.0   WNW   0.00   3.0   WNW    1.8    1.7    1.7  1008.8  0.00  0.00   0.057   0.000   23.4    38    8.3   22.9   7.38  .0732    117    1    100.0    5 
19/01/18   7:35    1.7    1.8    1.7    89    0.1   0.0   ---   0.00   0.0   ---    1.7    1.7    1.7  1008.8  0.00  0.00   0.058   0.000   23.4    38    8.3   22.9   7.38  .0732    117    1    100.0    5 
19/01/18   7:40    1.7    1.7    1.7    89    0.0   0.0     W   0.00   3.0     W    1.7    1.6    1.6  1009.0  0.00  0.00   0.058   0.000   23.4    38    8.3   22.9   7.38  .0732    115    1    100.0    5 
19/01/18   7:45    1.6    1.7    1.6    89   -0.1   1.0   WNW   0.08   4.0   WNW    1.6    1.5    1.5  1009.2  0.00  0.00   0.058   0.000   23.4    38    8.3   22.8   7.39  .0733    117    1    100.0    5 
19/01/18   7:50    1.5    1.6    1.5    89   -0.1   2.0     W   0.17   6.0     W    1.1    1.4    1.0  1009.3  0.00  0.00   0.058   0.000   23.4    37    7.9   22.8   7.27  .0733    117    1    100.0    5 
19/01/18   7:55    1.5    1.5    1.5    90    0.0   4.0     W   0.33   6.0     W   -0.4    1.4   -0.5  1009.3  0.00  0.00   0.058   0.000   23.3    37    7.8   22.7   7.27  .0733    117    1    100.0    5 
19/01/18   8:00    1.6    1.6    1.5    90    0.1   5.0     W   0.42   9.0     W   -0.9    1.5   -0.9  1009.3  0.00  0.00   0.058   0.000   23.3    37    7.8   22.7   7.27  .0733    117    1    100.0    5 
19/01/18   8:05    1.7    1.7    1.6    90    0.3   7.0     W   0.58  11.0     W   -1.6    1.7   -1.6  1009.4  0.00  0.00   0.058   0.000   23.3    37    7.8   22.6   7.27  .0733    117    1    100.0    5 
19/01/18   8:10    1.8    1.8    1.7    90    0.4   7.0     W   0.58  11.0     W   -1.4    1.8   -1.4  1009.4  0.00  0.00   0.057   0.000   23.3    37    7.8   22.6   7.27  .0733    117    1    100.0    5 
19/01/18   8:15    1.9    1.9    1.8    90    0.5   7.0     W   0.58  11.0     W   -1.3    1.9   -1.3  1009.5  0.00  0.00   0.057   0.000   23.3    37    7.8   22.6   7.27  .0733    118    1    100.0    5 
19/01/18   8:20    2.0    2.0    1.9    90    0.5   6.0     W   0.50  10.0     W   -0.8    1.9   -0.9  1009.5  0.00  0.00   0.057   0.000   23.3    37    7.8   22.6   7.27  .0733    117    1    100.0    5 
19/01/18   8:25    2.1    2.1    2.0    90    0.6   5.0     W   0.42   9.0   WSW   -0.3    2.0   -0.4  1009.6  0.00  0.00   0.057   0.000   23.3    37    7.8   22.7   7.27  .0733    115    1    100.0    5 
19/01/18   8:30    2.1    2.1    2.1    90    0.6   6.0     W   0.50   9.0     W   -0.8    2.0   -0.8  1009.5  0.00  0.00   0.057   0.000   23.3    37    7.8   22.7   7.27  .0733    117    1    100.0    5 
19/01/18   8:35    2.1    2.1    2.1    90    0.6   5.0     W   0.42   7.0     W   -0.3    2.0   -0.4  1009.5  0.00  0.00   0.057   0.000   23.3    37    7.8   22.7   7.27  .0733    117    1    100.0    5 
19/01/18   8:40    2.1    2.1    2.1    90    0.6   5.0     W   0.42   8.0     W   -0.3    2.0   -0.4  1009.6  0.00  0.00   0.057   0.000   23.3    37    7.8   22.7   7.27  .0733    116    1    100.0    5 
19/01/18   8:45    2.1    2.1    2.0    90    0.6   5.0   WNW   0.42   8.0     W   -0.3    2.0   -0.4  1009.6  0.00  0.00   0.057   0.000   23.3    37    7.8   22.7   7.27  .0733    116    1    100.0    5 
19/01/18   8:50    2.1    2.1    2.0    90    0.6   5.0   WNW   0.42   8.0   WNW   -0.3    2.0   -0.4  1009.7  0.00  0.00   0.057   0.000   23.4    37    7.9   22.8   7.27  .0733    117    1    100.0    5 
19/01/18   8:55    2.2    2.2    2.1    90    0.7   5.0   WNW   0.42   9.0   WNW   -0.2    2.1   -0.2  1009.7  0.00  0.00   0.056   0.000   23.4    37    7.9   22.8   7.27  .0733    116    1    100.0    5 
19/01/18   9:00    2.2    2.3    2.2    90    0.8   6.0     W   0.50   9.0   WNW   -0.6    2.2   -0.6  1009.7  0.00  0.00   0.056   0.000   23.4    37    7.9   22.8   7.27  .0733    116    1    100.0    5 
19/01/18   9:05    2.3    2.3    2.3    90    0.9   5.0     W   0.42   9.0     W    0.0    2.3   -0.1  1009.8  0.00  0.00   0.056   0.000   23.4    37    7.9   22.8   7.27  .0733    116    1    100.0    5 
19/01/18   9:10    2.5    2.5    2.3    90    1.0   5.0     W   0.42  10.0     W    0.2    2.4    0.2  1009.8  0.00  0.00   0.055   0.000   23.4    37    7.9   22.8   7.27  .0733    116    1    100.0    5 
19/01/18   9:15    2.6    2.6    2.5    90    1.1   5.0     W   0.42   9.0     W    0.3    2.6    0.3  1009.8  0.00  0.00   0.055   0.000   23.4    37    7.9   22.8   7.27  .0733    117    1    100.0    5 
19/01/18   9:20    2.7    2.7    2.7    90    1.2   4.0     W   0.33   7.0     W    0.9    2.7    0.9  1009.8  0.00  0.00   0.054   0.000   23.4    37    7.9   22.8   7.27  .0733    118    1    100.0    5 
19/01/18   9:25    2.8    2.8    2.7    90    1.4   5.0     W   0.42   8.0     W    0.6    2.8    0.6  1009.9  0.00  0.00   0.054   0.000   23.5    37    8.0   22.9   7.26  .0733    116    1    100.0    5 
19/01/18   9:30    2.9    2.9    2.8    89    1.3   5.0     W   0.42   8.0     W    0.7    2.9    0.7  1009.8  0.00  0.00   0.053   0.000   23.6    37    8.0   22.9   7.26  .0733    116    1    100.0    5 
19/01/18   9:35    3.0    3.0    2.9    89    1.4   5.0     W   0.42   9.0     W    0.8    2.9    0.7  1009.9  0.00  0.00   0.053   0.000   23.6    37    8.0   22.9   7.26  .0733    117    1    100.0    5 
19/01/18   9:40    3.1    3.1    3.0    89    1.5   4.0     W   0.33   8.0     W    1.4    3.1    1.3  1010.0  0.00  0.00   0.053   0.000   23.6    37    8.0   22.9   7.26  .0733    117    1    100.0    5 
19/01/18   9:45    3.2    3.2    3.1    89    1.5   4.0   WNW   0.33   9.0   WNW    1.5    3.1    1.4  1010.0  0.00  0.00   0.053   0.000   23.6    37    8.0   22.9   7.26  .0733    116    1    100.0    5 
19/01/18   9:50    3.2    3.2    3.2    89    1.6   5.0     W   0.42   9.0   WNW    1.1    3.2    1.0  1010.1  0.00  0.00   0.052   0.000   23.6    37    8.0   22.9   7.26  .0733    116    1    100.0    5 
19/01/18   9:55    3.3    3.3    3.2    89    1.6   5.0     W   0.42  10.0   WNW    1.1    3.2    1.1  1010.1  0.00  0.00   0.052   0.000   23.6    36    7.6   22.9   7.07  .0733    117    1    100.0    5 
19/01/18  10:00    3.4    3.4    3.3    89    1.7   6.0     W   0.50   9.0     W    0.8    3.3    0.8  1010.2  0.00  0.00   0.052   0.000   23.6    37    8.0   22.9   7.26  .0733    117    1    100.0    5 
19/01/18  10:05    3.5    3.6    3.4    88    1.7   5.0     W   0.42   9.0   WNW    1.4    3.4    1.3  1010.2  0.00  0.00   0.052   0.000   23.6    37    8.0   22.9   7.26  .0733    116    1    100.0    5 
19/01/18  10:10    3.6    3.6    3.6    88    1.8   6.0     W   0.50  10.0   WNW    1.1    3.6    1.1  1010.3  0.00  0.00   0.051   0.000   23.6    37    8.1   23.0   7.26  .0733    117    1    100.0    5 
19/01/18  10:15    3.8    3.8    3.6    88    2.0   7.0     W   0.58  11.0     W    0.9    3.7    0.9  1010.3  0.00  0.00   0.051   0.000   23.7    36    7.7   23.0   7.07  .0733    116    1    100.0    5 
19/01/18  10:20    4.0    4.0    3.8    88    2.2   5.0     W   0.42   8.0   WNW    1.9    3.9    1.9  1010.4  0.00  0.00   0.050   0.000   23.7    37    8.2   23.1   7.26  .0733    114    1    100.0    5 
19/01/18  10:25    4.2    4.2    4.0    88    2.4   6.0     W   0.50  10.0     W    1.8    4.2    1.8  1010.4  0.00  0.00   0.049   0.000   23.8    37    8.2   23.2   7.25  .0732    118    1    100.0    5 
19/01/18  10:30    4.4    4.4    4.2    88    2.6   6.0     W   0.50   9.0     W    2.1    4.4    2.1  1010.4  0.00  0.00   0.048   0.000   23.8    37    8.2   23.2   7.25  .0732    116    1    100.0    5 
19/01/18  10:35    4.7    4.7    4.4    87    2.7   6.0     W   0.50  11.0     W    2.3    4.6    2.2  1010.4  0.00  0.00   0.047   0.000   23.8    37    8.3   23.2   7.25  .0732    117    1    100.0    5 
19/01/18  10:40    4.9    4.9    4.7    87    3.0   5.0     W   0.42   9.0     W    3.1    4.8    2.9  1010.4  0.00  0.00   0.046   0.000   23.9    37    8.3   23.3   7.25  .0732    116    1    100.0    5 
19/01/18  10:45    5.1    5.1    4.9    86    3.0   7.0     W   0.58  12.0   WNW    2.5    5.0    2.4  1010.5  0.00  0.00   0.046   0.000   23.9    37    8.3   23.3   7.25  .0732    116    1    100.0    5 
19/01/18  10:50    5.3    5.3    5.1    86    3.2   6.0     W   0.50  11.0   WNW    3.1    5.2    3.0  1010.4  0.00  0.00   0.045   0.000   23.9    37    8.4   23.4   7.25  .0732    116    1    100.0    5 
19/01/18  10:55    5.6    5.6    5.3    86    3.4   6.0   WNW   0.50  10.0   WNW    3.4    5.4    3.3  1010.4  0.00  0.00   0.044   0.000   24.0    37    8.4   23.4   7.25  .0732    117    1    100.0    5 
19/01/18  11:00    5.7    5.7    5.5    85    3.4   5.0   WNW   0.42   9.0   WNW    4.0    5.6    3.9  1010.4  0.00  0.00   0.044   0.000   24.0    37    8.4   23.4   7.25  .0732    116    1    100.0    5 
19/01/18  11:05    5.9    5.9    5.7    85    3.6   6.0   WSW   0.50  10.0   WSW    3.8    5.8    3.7  1010.5  0.00  0.00   0.043   0.000   24.1    37    8.5   23.4   7.24  .0732    117    1    100.0    5 
19/01/18  11:10    5.8    5.9    5.8    85    3.5   9.0   WSW   0.75  13.0     W    2.8    5.7    2.7  1010.5  0.00  0.00   0.043   0.000   24.1    37    8.5   23.5   7.24  .0732    117    1    100.0    5 
19/01/18  11:15    6.0    6.1    5.8    85    3.7   8.0   WSW   0.67  12.0   WSW    3.3    5.9    3.3  1010.5  0.00  0.00   0.043   0.000   24.1    37    8.5   23.5   7.24  .0732    116    1    100.0    5 
19/01/18  11:20    6.0    6.1    6.0    84    3.5   8.0   WSW   0.67  12.0   WSW    3.3    5.9    3.2  1010.5  0.00  0.00   0.043   0.000   24.1    37    8.5   23.5   7.24  .0732    117    1    100.0    5 
19/01/18  11:25    5.8    6.0    5.8    84    3.3   9.0   WSW   0.75  11.0   WSW    2.8    5.7    2.7  1010.4  0.00  0.00   0.043   0.000   24.2    37    8.6   23.6   7.24  .0731    117    1    100.0    5 
19/01/18  11:30    5.9    5.9    5.8    85    3.6   8.0   WSW   0.67  10.0   WSW    3.2    5.9    3.2  1010.4  0.00  0.00   0.043   0.000   24.2    37    8.6   23.6   7.24  .0731    118    1    100.0    5 
19/01/18  11:35    6.0    6.0    5.9    84    3.5   8.0   WSW   0.67  11.0   WSW    3.3    5.9    3.2  1010.3  0.00  0.00   0.043   0.000   24.2    37    8.6   23.6   7.24  .0731    116    1    100.0    5 
19/01/18  11:40    6.3    6.3    6.0    84    3.8   7.0   WSW   0.58  13.0     W    4.0    6.2    3.9  1010.3  0.00  0.00   0.042   0.000   24.2    37    8.6   23.6   7.24  .0731    117    1    100.0    5 
19/01/18  11:45    6.5    6.5    6.3    83    3.8   8.0   WSW   0.67  13.0   WSW    3.9    6.4    3.8  1010.3  0.00  0.00   0.041   0.000   24.2    37    8.6   23.6   7.24  .0731    117    1    100.0    5 
19/01/18  11:50    6.7    6.7    6.5    82    3.8   8.0   WSW   0.67  12.0   WSW    4.1    6.6    4.0  1010.3  0.00  0.00   0.041   0.000   24.3    37    8.7   23.7   7.24  .0731    117    1    100.0    5 
19/01/18  11:55    6.8    6.8    6.7    82    4.0   9.0   WSW   0.75  12.0   WSW    4.0    6.7    3.9  1010.2  0.00  0.00   0.040   0.000   24.3    37    8.7   23.7   7.24  .0731    117    1    100.0    5 
19/01/18  12:00    7.1    7.1    6.8    81    4.0   9.0   WSW   0.75  13.0   WSW    4.2    6.9    4.1  1010.2  0.00  0.00   0.039   0.000   24.3    37    8.7   23.7   7.24  .0731    116    1    100.0    5 
19/01/18  12:05    6.8    7.1    6.8    79    3.4  12.0   WSW   1.00  17.0     W    3.1    6.7    3.0  1010.2  0.00  0.00   0.040   0.000   24.3    37    8.7   23.7   7.24  .0731    117    1    100.0    5 
19/01/18  12:10    6.8    6.8    6.8    80    3.6   9.0     W   0.75  17.0     W    4.0    6.7    3.9  1010.2  0.00  0.00   0.040   0.000   24.3    37    8.7   23.7   7.23  .0731    117    1    100.0    5 
19/01/18  12:15    6.8    6.8    6.7    80    3.6   8.0   WSW   0.67  13.0   WSW    4.2    6.7    4.1  1010.2  0.00  0.00   0.040   0.000   24.3    36    8.3   23.7   7.03  .0731    117    1    100.0    5 
19/01/18  12:20    7.1    7.1    6.8    80    3.8   8.0   WSW   0.67  13.0   WSW    4.6    6.9    4.4  1010.1  0.00  0.00   0.039   0.000   24.3    36    8.3   23.7   7.03  .0731    116    1    100.0    5 
19/01/18  12:25    7.3    7.3    7.0    79    3.9   8.0   WSW   0.67  11.0     W    4.8    7.2    4.7  1010.0  0.00  0.00   0.038   0.000   24.4    36    8.3   23.8   7.03  .0731    117    1    100.0    5 
19/01/18  12:30    7.1    7.3    7.1    78    3.5  11.0   WSW   0.92  18.0   WSW    3.7    6.9    3.5  1010.0  0.00  0.00   0.039   0.000   24.4    36    8.3   23.8   7.03  .0731    116    1    100.0    5 
19/01/18  12:35    7.2    7.2    7.0    78    3.6  11.0   WSW   0.92  19.0   WSW    3.8    7.0    3.7  1009.9  0.00  0.00   0.039   0.000   24.4    36    8.4   23.8   7.03  .0730    116    1    100.0    5 
19/01/18  12:40    7.6    7.6    7.2    77    3.8   8.0     W   0.67  16.0     W    5.2    7.4    5.0  1009.9  0.00  0.00   0.037   0.000   24.4    36    8.4   23.8   7.03  .0730    117    1    100.0    5 
19/01/18  12:45    7.7    7.7    7.6    75    3.6   7.0     W   0.58  14.0   WSW    5.7    7.5    5.5  1009.9  0.00  0.00   0.037   0.000   24.4    36    8.4   23.8   7.03  .0730    115    1    100.0    5 
19/01/18  12:50    7.9    7.9    7.8    74    3.6   9.0     W   0.75  15.0     W    5.3    7.7    5.1  1009.9  0.00  0.00   0.036   0.000   24.5    36    8.4   23.9   7.03  .0730    117    1    100.0    5 
19/01/18  12:55    7.8    7.9    7.8    76    3.8   9.0     W   0.75  16.0     W    5.1    7.6    4.9  1009.8  0.00  0.00   0.037   0.000   24.5    36    8.4   23.9   7.03  .0730    116    1    100.0    5 
19/01/18  13:00    7.7    7.8    7.7    76    3.8   9.0   WSW   0.75  16.0   WSW    5.1    7.5    4.8  1009.8  0.00  0.00   0.037   0.000   24.6    36    8.5   23.9   7.03  .0730    115    1    100.0    5 
19/01/18  13:05    7.7    7.7    7.7    75    3.5  11.0     W   0.92  17.0     W    4.4    7.4    4.2  1009.7  0.00  0.00   0.037   0.000   24.6    36    8.5   23.9   7.03  .0730    117    1    100.0    5 
19/01/18  13:10    7.7    7.7    7.7    74    3.3  10.0     W   0.83  15.0     W    4.7    7.4    4.4  1009.6  0.00  0.00   0.037   0.000   24.6    36    8.5   23.9   7.03  .0730    117    1    100.0    5 
19/01/18  13:15    7.7    7.7    7.7    74    3.3  11.0   WSW   0.92  15.0     W    4.4    7.4    4.2  1009.6  0.00  0.00   0.037   0.000   24.6    36    8.5   24.0   7.02  .0730    117    1    100.0    5 
19/01/18  13:20    7.6    7.7    7.6    73    3.1  10.0     W   0.83  18.0   WSW    4.6    7.4    4.4  1009.5  0.00  0.00   0.037   0.000   24.6    36    8.5   24.0   7.02  .0730    117    1    100.0    5 
19/01/18  13:25    7.6    7.6    7.6    73    3.1   9.0     W   0.75  16.0     W    4.9    7.4    4.7  1009.4  0.00  0.00   0.037   0.000   24.6    36    8.5   24.0   7.02  .0729    116    1    100.0    5 
19/01/18  13:30    7.5    7.6    7.5    72    2.8  10.0   WSW   0.83  18.0     W    4.5    7.2    4.2  1009.3  0.00  0.00   0.038   0.000   24.7    36    8.6   24.1   7.02  .0729    117    1    100.0    5 
19/01/18  13:35    7.3    7.5    7.3    72    2.6  11.0   WSW   0.92  18.0     W    4.0    7.1    3.7  1009.2  0.00  0.00   0.038   0.000   24.6    36    8.5   24.0   7.02  .0729    116    1    100.0    5 
19/01/18  13:40    7.3    7.3    7.3    72    2.6  11.0   WSW   0.92  18.0   WSW    3.9    7.0    3.7  1009.2  0.00  0.00   0.038   0.000   24.6    36    8.5   24.0   7.02  .0729    116    1    100.0    5 
19/01/18  13:45    7.4    7.4    7.3    71    2.5  10.0     W   0.83  15.0     W    4.3    7.1    4.1  1009.1  0.00  0.00   0.038   0.000   24.6    35    8.1   24.0   6.92  .0730    116    1    100.0    5 
19/01/18  13:50    7.3    7.4    7.3    71    2.4   9.0     W   0.75  15.0   WSW    4.6    7.1    4.3  1009.2  0.00  0.00   0.038   0.000   24.6    35    8.1   24.0   6.92  .0730    117    1    100.0    5 
19/01/18  13:55    7.4    7.4    7.3    70    2.3  14.0   WSW   1.17  22.0     W    3.4    7.1    3.2  1009.2  0.00  0.00   0.038   0.000   24.6    35    8.1   24.0   6.92  .0730    117    1    100.0    5 
19/01/18  14:00    7.5    7.5    7.4    71    2.6  11.0   WSW   0.92  23.0   WSW    4.2    7.2    3.9  1009.2  0.00  0.00   0.038   0.000   24.6    35    8.1   24.0   6.92  .0730    115    1    100.0    5 
19/01/18  14:05    7.6    7.6    7.6    70    2.5  12.0     W   1.00  17.0   WSW    4.1    7.3    3.8  1009.2  0.00  0.00   0.037   0.000   24.6    35    8.1   24.0   6.92  .0730    117    1    100.0    5 
19/01/18  14:10    7.6    7.6    7.6    69    2.2  13.0     W   1.08  20.0   WSW    3.8    7.3    3.6  1009.1  0.00  0.00   0.037   0.000   24.6    35    8.1   24.0   6.92  .0730    117    1    100.0    5 
19/01/18  14:15    7.6    7.6    7.6    69    2.2  12.0     W   1.00  20.0   WNW    4.1    7.3    3.8  1009.2  0.00  0.00   0.037   0.000   24.6    35    8.1   24.0   6.92  .0730    117    1    100.0    5 
19/01/18  14:20    7.6    7.6    7.5    68    2.0  13.0     W   1.08  21.0     W    3.8    7.2    3.5  1009.2  0.00  0.00   0.037   0.000   24.6    35    8.1   24.0   6.92  .0730    116    1    100.0    5 
19/01/18  14:25    7.7    7.7    7.6    68    2.2  12.0     W   1.00  20.0     W    4.2    7.4    3.9  1009.2  0.00  0.00   0.037   0.000   24.6    35    8.1   24.0   6.92  .0730    117    1    100.0    5 
19/01/18  14:30    7.7    7.7    7.7    68    2.2  14.0     W   1.17  20.0     W    3.8    7.4    3.5  1009.2  0.00  0.00   0.037   0.000   24.7    35    8.2   24.1   6.92  .0729    117    1    100.0    5 
19/01/18  14:35    8.0    8.0    7.7    67    2.2  14.0     W   1.17  20.0     W    4.1    7.7    3.8  1009.2  0.00  0.00   0.036   0.000   24.7    35    8.2   24.1   6.92  .0729    117    1    100.0    5 
19/01/18  14:40    8.3    8.3    8.0    66    2.3  11.0   WNW   0.92  18.0   WSW    5.1    7.9    4.7  1009.2  0.00  0.00   0.035   0.000   24.7    35    8.2   24.1   6.92  .0729    117    1    100.0    5 
19/01/18  14:45    8.4    8.4    8.3    66    2.5   9.0     W   0.75  18.0     W    5.8    8.1    5.4  1009.1  0.00  0.00   0.034   0.000   24.7    35    8.2   24.1   6.92  .0729    117    1    100.0    5 
19/01/18  14:50    8.3    8.5    8.3    65    2.1  13.0     W   1.08  20.0   WNW    4.7    7.9    4.3  1009.2  0.00  0.00   0.035   0.000   24.7    35    8.2   24.1   6.92  .0729    116    1    100.0    5 
96616